Time,TemperatureF,DewpointF,PressureIn,WindDirection,WindDirectionDegrees,WindSpeedMPH,WindSpeedGustMPH,Humidity,HourlyPrecipIn,Conditions,Clouds,dailyrainin,SoftwareType,DateUTC
2013-11-14 00:00:00,22.6,19.3,30.64,WSW,254,0.0,0.0,87,0.00,,,0.00,Wunderground v.1.15,2013-11-14 05:00:00,
2013-11-14 00:01:00,22.6,19.3,30.64,WSW,254,0.0,0.0,87,0.00,,,0.00,Wunderground v.1.15,2013-11-14 05:01:00,
2013-11-14 00:02:00,22.6,19.0,30.64,WSW,254,0.0,1.0,86,0.00,,,0.00,Wunderground v.1.15,2013-11-14 05:02:00,
2013-11-14 00:03:00,22.5,18.7,30.64,WSW,254,0.0,2.0,85,0.00,,,0.00,Wunderground v.1.15,2013-11-14 05:03:00,
2013-11-14 00:04:00,22.5,18.7,30.64,WSW,254,0.0,2.0,85,0.00,,,0.00,Wunderground v.1.15,2013-11-14 05:04:00,
2013-11-14 00:07:00,22.1,18.0,30.64,WSW,254,0.0,2.0,84,0.00,,,0.00,Wunderground v.1.15,2013-11-14 05:07:00,
2013-11-14 00:08:00,22.0,17.9,30.64,WSW,254,0.0,2.0,84,0.00,,,0.00,Wunderground v.1.15,2013-11-14 05:08:00,
2013-11-14 00:11:00,21.7,17.9,30.64,WSW,254,0.0,1.0,85,0.00,,,0.00,Wunderground v.1.15,2013-11-14 05:11:00,
2013-11-14 00:14:00,21.6,18.1,30.64,WSW,254,0.0,1.0,86,0.00,,,0.00,Wunderground v.1.15,2013-11-14 05:14:00,
2013-11-14 00:15:00,21.6,18.1,30.64,WSW,254,0.0,1.0,86,0.00,,,0.00,Wunderground v.1.15,2013-11-14 05:15:00,
2013-11-14 00:17:00,21.5,18.0,30.64,WSW,254,0.0,1.0,86,0.00,,,0.00,Wunderground v.1.15,2013-11-14 05:17:00,
2013-11-14 00:19:00,21.5,18.0,30.64,WSW,254,0.0,1.0,86,0.00,,,0.00,Wunderground v.1.15,2013-11-14 05:19:00,
2013-11-14 00:21:00,21.5,18.0,30.64,WSW,254,0.0,0.0,86,0.00,,,0.00,Wunderground v.1.15,2013-11-14 05:21:00,
2013-11-14 00:22:00,21.5,18.0,30.64,WSW,254,0.0,0.0,86,0.00,,,0.00,Wunderground v.1.15,2013-11-14 05:22:00,
2013-11-14 00:25:00,21.4,17.9,30.64,WSW,254,0.0,0.0,86,0.00,,,0.00,Wunderground v.1.15,2013-11-14 05:25:00,
2013-11-14 00:26:00,21.4,17.9,30.64,WSW,254,0.0,0.0,86,0.00,,,0.00,Wunderground v.1.15,2013-11-14 05:26:00,
2013-11-14 00:28:00,21.3,18.0,30.64,WSW,254,0.0,0.0,87,0.00,,,0.00,Wunderground v.1.15,2013-11-14 05:28:00,
2013-11-14 00:30:00,21.3,18.0,30.64,WSW,254,0.0,0.0,87,0.00,,,0.00,Wunderground v.1.15,2013-11-14 05:30:00,
2013-11-14 00:31:00,21.3,18.0,30.64,WSW,254,0.0,5.0,87,0.00,,,0.00,Wunderground v.1.15,2013-11-14 05:31:00,
2013-11-14 00:33:00,21.3,18.0,30.63,WSW,254,0.0,5.0,87,0.00,,,0.00,Wunderground v.1.15,2013-11-14 05:33:00,
2013-11-14 00:35:00,21.3,18.0,30.64,WSW,254,0.0,5.0,87,0.00,,,0.00,Wunderground v.1.15,2013-11-14 05:35:00,
2013-11-14 00:36:00,21.3,18.0,30.63,WSW,254,0.0,5.0,87,0.00,,,0.00,Wunderground v.1.15,2013-11-14 05:36:00,
2013-11-14 00:37:00,21.3,18.0,30.63,WSW,254,0.0,5.0,87,0.00,,,0.00,Wunderground v.1.15,2013-11-14 05:37:00,
2013-11-14 00:38:00,21.3,18.0,30.63,WSW,254,0.0,5.0,87,0.00,,,0.00,Wunderground v.1.15,2013-11-14 05:38:00,
2013-11-14 00:40:00,21.4,18.1,30.63,WSW,254,1.0,5.0,87,0.00,,,0.00,Wunderground v.1.15,2013-11-14 05:40:00,
2013-11-14 00:41:00,21.5,18.2,30.63,WSW,254,1.0,5.0,87,0.00,,,0.00,Wunderground v.1.15,2013-11-14 05:41:00,
2013-11-14 00:42:00,21.6,18.1,30.63,WSW,254,1.0,5.0,86,0.00,,,0.00,Wunderground v.1.15,2013-11-14 05:42:00,
2013-11-14 00:43:00,21.6,18.1,30.63,WSW,254,1.0,5.0,86,0.00,,,0.00,Wunderground v.1.15,2013-11-14 05:43:00,
2013-11-14 00:49:00,21.4,17.9,30.63,WSW,254,1.0,5.0,86,0.00,,,0.00,Wunderground v.1.15,2013-11-14 05:49:00,
2013-11-14 00:52:00,21.3,17.8,30.63,West,269,1.0,5.0,86,0.00,,,0.00,Wunderground v.1.15,2013-11-14 05:52:00,
2013-11-14 00:53:00,21.2,17.7,30.63,West,269,1.0,5.0,86,0.00,,,0.00,Wunderground v.1.15,2013-11-14 05:53:00,
2013-11-14 00:56:00,21.0,17.5,30.63,West,269,1.0,5.0,86,0.00,,,0.00,Wunderground v.1.15,2013-11-14 05:56:00,
2013-11-14 00:57:00,20.9,17.4,30.63,West,269,1.0,5.0,86,0.00,,,0.00,Wunderground v.1.15,2013-11-14 05:57:00,
2013-11-14 00:58:00,20.8,17.3,30.63,West,269,1.0,5.0,86,0.00,,,0.00,Wunderground v.1.15,2013-11-14 05:58:00,
2013-11-14 00:59:00,20.7,17.2,30.63,West,269,1.0,5.0,86,0.00,,,0.00,Wunderground v.1.15,2013-11-14 05:59:00,
2013-11-14 01:01:00,20.6,17.3,30.62,West,269,1.0,5.0,87,0.00,,,0.00,Wunderground v.1.15,2013-11-14 06:01:00,
2013-11-14 01:02:00,20.6,17.3,30.62,West,269,1.0,5.0,87,0.00,,,0.00,Wunderground v.1.15,2013-11-14 06:02:00,
2013-11-14 01:04:00,20.6,17.3,30.62,West,269,1.0,5.0,87,0.00,,,0.00,Wunderground v.1.15,2013-11-14 06:04:00,
2013-11-14 01:06:00,20.6,17.3,30.63,WSW,255,1.0,5.0,87,0.00,,,0.00,Wunderground v.1.15,2013-11-14 06:06:00,
2013-11-14 01:07:00,20.5,17.2,30.63,WSW,255,1.0,5.0,87,0.00,,,0.00,Wunderground v.1.15,2013-11-14 06:07:00,
2013-11-14 01:09:00,20.4,17.1,30.62,WSW,255,1.0,5.0,87,0.00,,,0.00,Wunderground v.1.15,2013-11-14 06:09:00,
2013-11-14 01:13:00,20.2,17.0,30.62,WSW,255,0.0,5.0,87,0.00,,,0.00,Wunderground v.1.15,2013-11-14 06:13:00,
2013-11-14 01:14:00,20.2,17.2,30.62,WSW,255,0.0,5.0,88,0.00,,,0.00,Wunderground v.1.15,2013-11-14 06:14:00,
2013-11-14 01:15:00,20.2,17.2,30.62,WSW,255,0.0,5.0,88,0.00,,,0.00,Wunderground v.1.15,2013-11-14 06:15:00,
2013-11-14 01:17:00,20.1,17.1,30.62,WSW,255,0.0,5.0,88,0.00,,,0.00,Wunderground v.1.15,2013-11-14 06:17:00,
2013-11-14 01:19:00,20.2,17.5,30.62,WSW,255,0.0,5.0,89,0.00,,,0.00,Wunderground v.1.15,2013-11-14 06:19:00,
2013-11-14 01:21:00,20.1,17.1,30.62,WSW,255,0.0,5.0,88,0.00,,,0.00,Wunderground v.1.15,2013-11-14 06:21:00,
2013-11-14 01:22:00,20.1,17.4,30.62,WSW,255,0.0,5.0,89,0.00,,,0.00,Wunderground v.1.15,2013-11-14 06:22:00,
2013-11-14 01:24:00,20.0,17.3,30.62,WSW,255,0.0,5.0,89,0.00,,,0.00,Wunderground v.1.15,2013-11-14 06:24:00,
2013-11-14 01:25:00,20.0,17.0,30.62,WSW,255,0.0,5.0,88,0.00,,,0.00,Wunderground v.1.15,2013-11-14 06:25:00,
2013-11-14 01:26:00,20.0,17.0,30.62,WSW,255,0.0,5.0,88,0.00,,,0.00,Wunderground v.1.15,2013-11-14 06:26:00,
2013-11-14 01:27:00,20.0,17.3,30.62,WSW,255,0.0,5.0,89,0.00,,,0.00,Wunderground v.1.15,2013-11-14 06:27:00,
2013-11-14 01:29:00,19.9,16.9,30.62,WSW,255,0.0,5.0,88,0.00,,,0.00,Wunderground v.1.15,2013-11-14 06:29:00,
2013-11-14 01:30:00,19.9,16.9,30.62,WSW,255,0.0,5.0,88,0.00,,,0.00,Wunderground v.1.15,2013-11-14 06:30:00,
2013-11-14 01:31:00,19.9,16.9,30.62,WSW,255,0.0,5.0,88,0.00,,,0.00,Wunderground v.1.15,2013-11-14 06:31:00,
2013-11-14 01:34:00,19.8,17.1,30.62,WSW,255,0.0,5.0,89,0.00,,,0.00,Wunderground v.1.15,2013-11-14 06:34:00,
2013-11-14 01:35:00,19.8,17.1,30.62,WSW,255,0.0,5.0,89,0.00,,,0.00,Wunderground v.1.15,2013-11-14 06:35:00,
2013-11-14 01:38:00,19.8,17.1,30.62,WSW,255,0.0,5.0,89,0.00,,,0.00,Wunderground v.1.15,2013-11-14 06:38:00,
2013-11-14 01:39:00,19.8,17.1,30.62,WSW,255,0.0,5.0,89,0.00,,,0.00,Wunderground v.1.15,2013-11-14 06:39:00,
2013-11-14 01:41:00,19.9,17.7,30.62,WSW,255,0.0,5.0,91,0.00,,,0.00,Wunderground v.1.15,2013-11-14 06:41:00,
2013-11-14 01:44:00,19.9,17.4,30.62,WSW,255,0.0,5.0,90,0.00,,,0.00,Wunderground v.1.15,2013-11-14 06:44:00,
2013-11-14 01:47:00,19.9,17.4,30.62,WSW,255,0.0,5.0,90,0.00,,,0.00,Wunderground v.1.15,2013-11-14 06:47:00,
2013-11-14 01:50:00,19.8,17.1,30.62,WSW,255,1.0,5.0,89,0.00,,,0.00,Wunderground v.1.15,2013-11-14 06:50:00,
2013-11-14 01:51:00,19.8,17.1,30.62,WSW,255,1.0,5.0,89,0.00,,,0.00,Wunderground v.1.15,2013-11-14 06:51:00,
2013-11-14 01:52:00,19.8,17.1,30.62,WSW,255,1.0,5.0,89,0.00,,,0.00,Wunderground v.1.15,2013-11-14 06:52:00,
2013-11-14 01:54:00,19.8,17.1,30.62,WSW,255,1.0,5.0,89,0.00,,,0.00,Wunderground v.1.15,2013-11-14 06:54:00,
2013-11-14 01:57:00,19.9,17.4,30.62,WSW,255,2.0,5.0,90,0.00,,,0.00,Wunderground v.1.15,2013-11-14 06:57:00,
2013-11-14 01:58:00,20.0,17.5,30.62,WSW,255,2.0,5.0,90,0.00,,,0.00,Wunderground v.1.15,2013-11-14 06:58:00,
2013-11-14 02:00:00,20.1,17.6,30.62,WSW,255,1.0,1.0,90,0.00,,,0.00,Wunderground v.1.15,2013-11-14 07:00:00,
2013-11-14 02:01:00,20.1,17.4,30.62,WSW,255,1.0,5.0,89,0.00,,,0.00,Wunderground v.1.15,2013-11-14 07:01:00,
2013-11-14 02:04:00,20.0,17.3,30.62,WSW,255,1.0,5.0,89,0.00,,,0.00,Wunderground v.1.15,2013-11-14 07:04:00,
2013-11-14 02:05:00,20.0,17.3,30.62,WSW,255,1.0,5.0,89,0.00,,,0.00,Wunderground v.1.15,2013-11-14 07:05:00,
2013-11-14 02:06:00,20.0,17.3,30.62,WSW,255,0.0,5.0,89,0.00,,,0.00,Wunderground v.1.15,2013-11-14 07:06:00,
2013-11-14 02:08:00,19.9,17.2,30.62,WSW,255,0.0,5.0,89,0.00,,,0.00,Wunderground v.1.15,2013-11-14 07:08:00,
2013-11-14 02:11:00,19.9,17.2,30.62,WSW,255,0.0,5.0,89,0.00,,,0.00,Wunderground v.1.15,2013-11-14 07:11:00,
2013-11-14 02:12:00,19.9,17.2,30.62,WSW,255,0.0,5.0,89,0.00,,,0.00,Wunderground v.1.15,2013-11-14 07:12:00,
2013-11-14 02:14:00,19.9,17.2,30.62,WSW,255,0.0,5.0,89,0.00,,,0.00,Wunderground v.1.15,2013-11-14 07:14:00,
2013-11-14 02:18:00,20.0,17.3,30.61,WSW,255,1.0,5.0,89,0.00,,,0.00,Wunderground v.1.15,2013-11-14 07:18:00,
2013-11-14 02:19:00,20.0,17.3,30.62,WSW,255,1.0,5.0,89,0.00,,,0.00,Wunderground v.1.15,2013-11-14 07:19:00,
2013-11-14 02:21:00,20.0,17.3,30.62,WSW,255,0.0,5.0,89,0.00,,,0.00,Wunderground v.1.15,2013-11-14 07:21:00,
2013-11-14 02:22:00,20.0,17.3,30.61,WSW,255,0.0,5.0,89,0.00,,,0.00,Wunderground v.1.15,2013-11-14 07:22:00,
2013-11-14 02:24:00,19.9,17.2,30.61,WSW,255,0.0,5.0,89,0.00,,,0.00,Wunderground v.1.15,2013-11-14 07:24:00,
2013-11-14 02:25:00,19.9,17.2,30.61,WSW,255,0.0,5.0,89,0.00,,,0.00,Wunderground v.1.15,2013-11-14 07:25:00,
2013-11-14 02:27:00,20.0,17.3,30.62,WSW,255,0.0,5.0,89,0.00,,,0.00,Wunderground v.1.15,2013-11-14 07:27:00,
2013-11-14 02:28:00,20.0,17.5,30.61,WSW,255,0.0,5.0,90,0.00,,,0.00,Wunderground v.1.15,2013-11-14 07:28:00,
2013-11-14 02:29:00,20.0,17.5,30.62,WSW,255,0.0,5.0,90,0.00,,,0.00,Wunderground v.1.15,2013-11-14 07:29:00,
2013-11-14 02:30:00,20.0,17.5,30.61,WSW,255,0.0,5.0,90,0.00,,,0.00,Wunderground v.1.15,2013-11-14 07:30:00,
2013-11-14 02:31:00,19.9,17.4,30.61,WSW,255,0.0,5.0,90,0.00,,,0.00,Wunderground v.1.15,2013-11-14 07:31:00,
2013-11-14 02:33:00,19.8,17.1,30.61,WSW,255,0.0,5.0,89,0.00,,,0.00,Wunderground v.1.15,2013-11-14 07:33:00,
2013-11-14 02:35:00,19.8,17.3,30.61,WSW,255,0.0,5.0,90,0.00,,,0.00,Wunderground v.1.15,2013-11-14 07:35:00,
2013-11-14 02:36:00,19.8,17.3,30.61,WSW,255,0.0,5.0,90,0.00,,,0.00,Wunderground v.1.15,2013-11-14 07:36:00,
2013-11-14 02:38:00,19.8,17.3,30.61,WSW,255,0.0,5.0,90,0.00,,,0.00,Wunderground v.1.15,2013-11-14 07:38:00,
2013-11-14 02:39:00,19.7,17.2,30.61,WSW,255,0.0,5.0,90,0.00,,,0.00,Wunderground v.1.15,2013-11-14 07:39:00,
2013-11-14 02:41:00,19.6,16.9,30.61,WSW,255,0.0,5.0,89,0.00,,,0.00,Wunderground v.1.15,2013-11-14 07:41:00,
2013-11-14 02:42:00,19.6,17.1,30.61,WSW,255,0.0,5.0,90,0.00,,,0.00,Wunderground v.1.15,2013-11-14 07:42:00,
2013-11-14 02:49:00,19.6,17.1,30.61,WSW,255,0.0,5.0,90,0.00,,,0.00,Wunderground v.1.15,2013-11-14 07:49:00,
2013-11-14 02:50:00,19.5,16.8,30.61,WSW,255,0.0,5.0,89,0.00,,,0.00,Wunderground v.1.15,2013-11-14 07:50:00,
2013-11-14 02:51:00,19.5,16.8,30.61,WSW,255,0.0,5.0,89,0.00,,,0.00,Wunderground v.1.15,2013-11-14 07:51:00,
2013-11-14 02:52:00,19.5,16.8,30.61,WSW,255,0.0,5.0,89,0.00,,,0.00,Wunderground v.1.15,2013-11-14 07:52:00,
2013-11-14 02:53:00,19.5,16.8,30.61,WSW,255,0.0,5.0,89,0.00,,,0.00,Wunderground v.1.15,2013-11-14 07:53:00,
2013-11-14 02:58:00,19.4,16.9,30.61,WSW,255,0.0,5.0,90,0.00,,,0.00,Wunderground v.1.15,2013-11-14 07:58:00,
2013-11-14 03:00:00,19.4,16.9,30.61,WSW,255,0.0,5.0,90,0.00,,,0.00,Wunderground v.1.15,2013-11-14 08:00:00,
2013-11-14 03:01:00,19.3,16.8,30.61,WSW,255,0.0,5.0,90,0.00,,,0.00,Wunderground v.1.15,2013-11-14 08:01:00,
2013-11-14 03:02:00,19.3,16.8,30.61,WSW,255,0.0,5.0,90,0.00,,,0.00,Wunderground v.1.15,2013-11-14 08:02:00,
2013-11-14 03:05:00,19.3,16.8,30.61,WSW,255,0.0,5.0,90,0.00,,,0.00,Wunderground v.1.15,2013-11-14 08:05:00,
2013-11-14 03:07:00,19.2,16.7,30.61,WSW,255,0.0,5.0,90,0.00,,,0.00,Wunderground v.1.15,2013-11-14 08:07:00,
2013-11-14 03:09:00,19.2,16.7,30.61,WSW,255,0.0,5.0,90,0.00,,,0.00,Wunderground v.1.15,2013-11-14 08:09:00,
2013-11-14 03:10:00,19.2,16.7,30.61,WSW,255,0.0,5.0,90,0.00,,,0.00,Wunderground v.1.15,2013-11-14 08:10:00,
2013-11-14 03:11:00,19.2,16.7,30.61,WSW,255,0.0,5.0,90,0.00,,,0.00,Wunderground v.1.15,2013-11-14 08:11:00,
2013-11-14 03:15:00,26.9,24.4,30.61,SW,227,0.0,5.0,90,0.00,,,0.00,Wunderground v.1.15,2013-11-14 08:15:00,
2013-11-14 03:16:00,26.9,17.0,30.61,SW,225,0.0,5.0,66,0.00,,,0.00,Wunderground v.1.15,2013-11-14 08:16:00,
2013-11-14 03:18:00,26.7,16.9,30.61,SW,226,0.0,5.0,66,0.00,,,0.00,Wunderground v.1.15,2013-11-14 08:18:00,
2013-11-14 03:20:00,26.6,16.8,30.61,SW,226,0.0,5.0,66,0.00,,,0.00,Wunderground v.1.15,2013-11-14 08:20:00,
2013-11-14 03:21:00,26.5,16.7,30.61,SW,226,0.0,5.0,66,0.00,,,0.00,Wunderground v.1.15,2013-11-14 08:21:00,
2013-11-14 03:23:00,26.4,16.9,30.61,SW,226,0.0,5.0,67,0.00,,,0.00,Wunderground v.1.15,2013-11-14 08:23:00,
2013-11-14 03:25:00,26.2,16.7,30.61,SW,225,0.0,5.0,67,0.00,,,0.00,Wunderground v.1.15,2013-11-14 08:25:00,
2013-11-14 03:26:00,26.1,16.6,30.61,SW,233,0.0,5.0,67,0.00,,,0.00,Wunderground v.1.15,2013-11-14 08:26:00,
2013-11-14 03:27:00,25.9,16.8,30.61,WSW,246,0.0,5.0,68,0.00,,,0.00,Wunderground v.1.15,2013-11-14 08:27:00,
2013-11-14 03:28:00,25.8,16.7,30.61,SSW,209,1.0,5.0,68,0.00,,,0.00,Wunderground v.1.15,2013-11-14 08:28:00,
2013-11-14 03:31:00,25.5,16.4,30.61,SSW,202,1.0,5.0,68,0.00,,,0.00,Wunderground v.1.15,2013-11-14 08:31:00,
2013-11-14 03:32:00,25.4,17.0,30.61,SSW,204,1.0,5.0,70,0.00,,,0.00,Wunderground v.1.15,2013-11-14 08:32:00,
2013-11-14 03:34:00,25.1,16.7,30.61,SSW,206,1.0,5.0,70,0.00,,,0.00,Wunderground v.1.15,2013-11-14 08:34:00,
2013-11-14 03:36:00,25.0,16.9,30.61,SSW,206,1.0,5.0,71,0.00,,,0.00,Wunderground v.1.15,2013-11-14 08:36:00,
2013-11-14 03:38:00,25.0,16.6,30.61,SSW,206,0.0,5.0,70,0.00,,,0.00,Wunderground v.1.15,2013-11-14 08:38:00,
2013-11-14 03:39:00,25.0,16.6,30.61,SSW,206,0.0,5.0,70,0.00,,,0.00,Wunderground v.1.15,2013-11-14 08:39:00,
2013-11-14 03:42:00,25.0,16.9,30.61,SSW,206,0.0,5.0,71,0.00,,,0.00,Wunderground v.1.15,2013-11-14 08:42:00,
2013-11-14 03:43:00,25.0,16.9,30.61,SSW,206,0.0,5.0,71,0.00,,,0.00,Wunderground v.1.15,2013-11-14 08:43:00,
2013-11-14 03:44:00,25.0,16.9,30.61,SSW,206,0.0,5.0,71,0.00,,,0.00,Wunderground v.1.15,2013-11-14 08:44:00,
2013-11-14 03:45:00,25.0,16.6,30.61,SSW,206,0.0,5.0,70,0.00,,,0.00,Wunderground v.1.15,2013-11-14 08:45:00,
2013-11-14 03:46:00,25.0,16.6,30.61,SSW,206,0.0,5.0,70,0.00,,,0.00,Wunderground v.1.15,2013-11-14 08:46:00,
2013-11-14 03:47:00,25.0,16.6,30.61,SSW,206,0.0,5.0,70,0.00,,,0.00,Wunderground v.1.15,2013-11-14 08:47:00,
2013-11-14 03:49:00,25.0,16.6,30.61,SSW,206,0.0,5.0,70,0.00,,,0.00,Wunderground v.1.15,2013-11-14 08:49:00,
2013-11-14 03:51:00,25.0,16.3,30.61,SSW,206,0.0,5.0,69,0.00,,,0.00,Wunderground v.1.15,2013-11-14 08:51:00,
2013-11-14 03:54:00,25.1,16.4,30.61,SSW,206,0.0,5.0,69,0.00,,,0.00,Wunderground v.1.15,2013-11-14 08:54:00,
2013-11-14 03:55:00,25.1,16.4,30.61,SSW,206,0.0,5.0,69,0.00,,,0.00,Wunderground v.1.15,2013-11-14 08:55:00,
2013-11-14 03:57:00,25.1,16.4,30.61,SSW,206,0.0,5.0,69,0.00,,,0.00,Wunderground v.1.15,2013-11-14 08:57:00,
2013-11-14 03:58:00,25.1,16.4,30.61,SSW,206,0.0,5.0,69,0.00,,,0.00,Wunderground v.1.15,2013-11-14 08:58:00,
2013-11-14 03:59:00,25.1,16.4,30.61,SSW,206,0.0,5.0,69,0.00,,,0.00,Wunderground v.1.15,2013-11-14 08:59:00,
2013-11-14 04:01:00,25.1,16.4,30.61,SSW,205,0.0,5.0,69,0.00,,,0.00,Wunderground v.1.15,2013-11-14 09:01:00,
2013-11-14 04:02:00,25.2,16.1,30.61,SSW,206,0.0,5.0,68,0.00,,,0.00,Wunderground v.1.15,2013-11-14 09:02:00,
2013-11-14 04:04:00,25.3,16.2,30.61,SSW,206,0.0,5.0,68,0.00,,,0.00,Wunderground v.1.15,2013-11-14 09:04:00,
2013-11-14 04:05:00,25.3,16.5,30.61,SSE,156,0.0,5.0,69,0.00,,,0.00,Wunderground v.1.15,2013-11-14 09:05:00,
2013-11-14 04:06:00,25.3,16.5,30.61,SSE,148,0.0,5.0,69,0.00,,,0.00,Wunderground v.1.15,2013-11-14 09:06:00,
2013-11-14 04:10:00,25.3,16.5,30.61,SSE,150,0.0,5.0,69,0.00,,,0.00,Wunderground v.1.15,2013-11-14 09:10:00,
2013-11-14 04:11:00,25.2,16.5,30.61,SSE,149,0.0,5.0,69,0.00,,,0.00,Wunderground v.1.15,2013-11-14 09:11:00,
2013-11-14 04:12:00,25.2,16.5,30.61,SSE,149,0.0,5.0,69,0.00,,,0.00,Wunderground v.1.15,2013-11-14 09:12:00,
2013-11-14 04:13:00,25.1,16.4,30.61,SSE,149,0.0,5.0,69,0.00,,,0.00,Wunderground v.1.15,2013-11-14 09:13:00,
2013-11-14 04:14:00,25.0,16.3,30.61,SSE,149,0.0,5.0,69,0.00,,,0.00,Wunderground v.1.15,2013-11-14 09:14:00,
2013-11-14 04:15:00,25.0,16.6,30.61,SSE,149,0.0,5.0,70,0.00,,,0.00,Wunderground v.1.15,2013-11-14 09:15:00,
2013-11-14 04:17:00,24.8,16.4,30.61,SSE,150,0.0,5.0,70,0.00,,,0.00,Wunderground v.1.15,2013-11-14 09:17:00,
2013-11-14 04:20:00,24.7,16.3,30.60,SSE,150,0.0,5.0,70,0.00,,,0.00,Wunderground v.1.15,2013-11-14 09:20:00,
2013-11-14 04:21:00,24.6,16.2,30.60,SSE,150,0.0,5.0,70,0.00,,,0.00,Wunderground v.1.15,2013-11-14 09:21:00,
2013-11-14 04:24:00,24.4,16.3,30.60,SSE,150,0.0,5.0,71,0.00,,,0.00,Wunderground v.1.15,2013-11-14 09:24:00,
2013-11-14 04:26:00,24.4,16.3,30.60,SSE,149,0.0,5.0,71,0.00,,,0.00,Wunderground v.1.15,2013-11-14 09:26:00,
2013-11-14 04:28:00,24.3,16.2,30.60,SSE,149,0.0,5.0,71,0.00,,,0.00,Wunderground v.1.15,2013-11-14 09:28:00,
2013-11-14 04:33:00,24.4,16.3,30.60,SSE,151,0.0,5.0,71,0.00,,,0.00,Wunderground v.1.15,2013-11-14 09:33:00,
2013-11-14 04:34:00,24.5,16.4,30.60,NW,310,0.0,5.0,71,0.00,,,0.00,Wunderground v.1.15,2013-11-14 09:34:00,
2013-11-14 04:35:00,24.5,16.4,30.60,NW,310,0.0,5.0,71,0.00,,,0.00,Wunderground v.1.15,2013-11-14 09:35:00,
2013-11-14 04:36:00,24.6,16.5,30.60,NW,310,0.0,5.0,71,0.00,,,0.00,Wunderground v.1.15,2013-11-14 09:36:00,
2013-11-14 04:39:00,24.9,16.8,30.60,West,265,0.0,5.0,71,0.00,,,0.00,Wunderground v.1.15,2013-11-14 09:39:00,
2013-11-14 04:41:00,25.1,17.0,30.60,West,264,0.0,5.0,71,0.00,,,0.00,Wunderground v.1.15,2013-11-14 09:41:00,
2013-11-14 04:43:00,25.1,15.7,30.60,West,264,0.0,5.0,67,0.00,,,0.00,Wunderground v.1.15,2013-11-14 09:43:00,
2013-11-14 04:44:00,25.3,15.9,30.60,West,263,0.0,5.0,67,0.00,,,0.00,Wunderground v.1.15,2013-11-14 09:44:00,
2013-11-14 04:46:00,25.5,16.1,30.60,West,263,0.0,5.0,67,0.00,,,0.00,Wunderground v.1.15,2013-11-14 09:46:00,
2013-11-14 04:48:00,25.5,16.4,30.60,West,263,0.0,5.0,68,0.00,,,0.00,Wunderground v.1.15,2013-11-14 09:48:00,
2013-11-14 04:49:00,25.4,16.3,30.60,WSW,249,0.0,5.0,68,0.00,,,0.00,Wunderground v.1.15,2013-11-14 09:49:00,
2013-11-14 04:51:00,25.5,15.4,30.60,SW,219,0.0,5.0,65,0.00,,,0.00,Wunderground v.1.15,2013-11-14 09:51:00,
2013-11-14 04:52:00,25.7,15.6,30.60,SW,219,0.0,5.0,65,0.00,,,0.00,Wunderground v.1.15,2013-11-14 09:52:00,
2013-11-14 04:53:00,25.7,15.6,30.59,SW,219,0.0,5.0,65,0.00,,,0.00,Wunderground v.1.15,2013-11-14 09:53:00,
2013-11-14 04:54:00,25.7,16.3,30.60,WNW,298,0.0,5.0,67,0.00,,,0.00,Wunderground v.1.15,2013-11-14 09:54:00,
2013-11-14 04:56:00,25.7,16.3,30.60,SW,219,0.0,5.0,67,0.00,,,0.00,Wunderground v.1.15,2013-11-14 09:56:00,
2013-11-14 04:59:00,25.7,16.6,30.60,SW,219,0.0,5.0,68,0.00,,,0.00,Wunderground v.1.15,2013-11-14 09:59:00,
2013-11-14 05:01:00,25.7,16.3,30.60,SW,219,0.0,5.0,67,0.00,,,0.00,Wunderground v.1.15,2013-11-14 10:01:00,
2013-11-14 05:02:00,25.7,16.3,30.60,SW,219,0.0,5.0,67,0.00,,,0.00,Wunderground v.1.15,2013-11-14 10:02:00,
2013-11-14 05:06:00,25.7,16.6,30.60,SW,219,0.0,5.0,68,0.00,,,0.00,Wunderground v.1.15,2013-11-14 10:06:00,
2013-11-14 05:07:00,25.7,16.6,30.60,SW,219,0.0,5.0,68,0.00,,,0.00,Wunderground v.1.15,2013-11-14 10:07:00,
2013-11-14 05:08:00,25.6,16.8,30.60,SW,219,0.0,5.0,69,0.00,,,0.00,Wunderground v.1.15,2013-11-14 10:08:00,
2013-11-14 05:09:00,25.6,16.8,30.60,SW,219,0.0,5.0,69,0.00,,,0.00,Wunderground v.1.15,2013-11-14 10:09:00,
2013-11-14 05:12:00,25.4,16.6,30.60,SW,219,0.0,5.0,69,0.00,,,0.00,Wunderground v.1.15,2013-11-14 10:12:00,
2013-11-14 05:15:00,25.2,16.5,30.60,SW,219,0.0,5.0,69,0.00,,,0.00,Wunderground v.1.15,2013-11-14 10:15:00,
2013-11-14 05:16:00,17.4,9.0,30.60,WSW,255,0.0,5.0,69,0.00,,,0.00,Wunderground v.1.15,2013-11-14 10:16:00,
2013-11-14 05:17:00,17.3,15.4,30.60,WSW,255,0.0,5.0,92,0.00,,,0.00,Wunderground v.1.15,2013-11-14 10:17:00,
2013-11-14 05:21:00,17.3,15.4,30.60,WSW,255,0.0,5.0,92,0.00,,,0.00,Wunderground v.1.15,2013-11-14 10:21:00,
2013-11-14 05:23:00,17.3,15.4,30.60,WSW,255,0.0,5.0,92,0.00,,,0.00,Wunderground v.1.15,2013-11-14 10:23:00,
2013-11-14 05:24:00,17.4,15.7,30.60,WSW,255,0.0,5.0,93,0.00,,,0.00,Wunderground v.1.15,2013-11-14 10:24:00,
2013-11-14 05:25:00,17.3,15.6,30.60,WSW,255,0.0,5.0,93,0.00,,,0.00,Wunderground v.1.15,2013-11-14 10:25:00,
2013-11-14 05:26:00,17.3,15.6,30.60,WSW,255,0.0,5.0,93,0.00,,,0.00,Wunderground v.1.15,2013-11-14 10:26:00,
2013-11-14 05:27:00,17.3,15.6,30.60,WSW,255,0.0,5.0,93,0.00,,,0.00,Wunderground v.1.15,2013-11-14 10:27:00,
2013-11-14 05:30:00,17.5,15.8,30.60,WSW,255,0.0,5.0,93,0.00,,,0.00,Wunderground v.1.15,2013-11-14 10:30:00,
2013-11-14 05:31:00,17.5,15.8,30.60,WSW,255,0.0,5.0,93,0.00,,,0.00,Wunderground v.1.15,2013-11-14 10:31:00,
2013-11-14 05:34:00,17.6,15.9,30.60,WSW,255,0.0,5.0,93,0.00,,,0.00,Wunderground v.1.15,2013-11-14 10:34:00,
2013-11-14 05:35:00,17.7,16.3,30.60,WSW,255,0.0,5.0,94,0.00,,,0.00,Wunderground v.1.15,2013-11-14 10:35:00,
2013-11-14 05:36:00,17.7,16.0,30.60,WSW,255,0.0,5.0,93,0.00,,,0.00,Wunderground v.1.15,2013-11-14 10:36:00,
2013-11-14 05:37:00,17.7,16.0,30.60,WSW,255,0.0,5.0,93,0.00,,,0.00,Wunderground v.1.15,2013-11-14 10:37:00,
2013-11-14 05:38:00,17.7,16.0,30.60,WSW,255,0.0,5.0,93,0.00,,,0.00,Wunderground v.1.15,2013-11-14 10:38:00,
2013-11-14 05:40:00,17.7,16.0,30.60,WSW,255,0.0,5.0,93,0.00,,,0.00,Wunderground v.1.15,2013-11-14 10:40:00,
2013-11-14 05:42:00,17.7,16.0,30.60,WSW,255,0.0,5.0,93,0.00,,,0.00,Wunderground v.1.15,2013-11-14 10:42:00,
2013-11-14 05:43:00,17.7,16.0,30.60,WSW,255,0.0,5.0,93,0.00,,,0.00,Wunderground v.1.15,2013-11-14 10:43:00,
2013-11-14 05:45:00,17.6,15.9,30.60,WSW,255,0.0,5.0,93,0.00,,,0.00,Wunderground v.1.15,2013-11-14 10:45:00,
2013-11-14 05:47:00,17.7,16.0,30.60,WSW,255,0.0,5.0,93,0.00,,,0.00,Wunderground v.1.15,2013-11-14 10:47:00,
2013-11-14 05:48:00,17.7,16.0,30.60,WSW,255,0.0,5.0,93,0.00,,,0.00,Wunderground v.1.15,2013-11-14 10:48:00,
2013-11-14 05:51:00,17.7,16.0,30.60,WSW,255,0.0,5.0,93,0.00,,,0.00,Wunderground v.1.15,2013-11-14 10:51:00,
2013-11-14 05:53:00,17.7,16.0,30.61,WSW,255,0.0,5.0,93,0.00,,,0.00,Wunderground v.1.15,2013-11-14 10:53:00,
2013-11-14 05:54:00,17.7,16.0,30.61,WSW,255,0.0,5.0,93,0.00,,,0.00,Wunderground v.1.15,2013-11-14 10:54:00,
2013-11-14 05:55:00,17.6,15.9,30.60,WSW,255,0.0,5.0,93,0.00,,,0.00,Wunderground v.1.15,2013-11-14 10:55:00,
2013-11-14 06:00:00,17.6,15.9,30.60,WSW,255,0.0,5.0,93,0.00,,,0.00,Wunderground v.1.15,2013-11-14 11:00:00,
2013-11-14 06:01:00,17.6,15.9,30.61,WSW,255,0.0,5.0,93,0.00,,,0.00,Wunderground v.1.15,2013-11-14 11:01:00,
2013-11-14 06:02:00,17.6,15.7,30.61,WSW,255,0.0,5.0,92,0.00,,,0.00,Wunderground v.1.15,2013-11-14 11:02:00,
2013-11-14 06:04:00,17.6,15.9,30.61,WSW,255,0.0,5.0,93,0.00,,,0.00,Wunderground v.1.15,2013-11-14 11:04:00,
2013-11-14 06:05:00,17.6,15.9,30.61,WSW,255,0.0,5.0,93,0.00,,,0.00,Wunderground v.1.15,2013-11-14 11:05:00,
2013-11-14 06:09:00,17.5,15.6,30.60,WSW,255,0.0,5.0,92,0.00,,,0.00,Wunderground v.1.15,2013-11-14 11:09:00,
2013-11-14 06:10:00,17.5,15.6,30.60,WSW,255,0.0,5.0,92,0.00,,,0.00,Wunderground v.1.15,2013-11-14 11:10:00,
2013-11-14 06:11:00,17.5,15.6,30.60,WSW,255,0.0,5.0,92,0.00,,,0.00,Wunderground v.1.15,2013-11-14 11:11:00,
2013-11-14 06:12:00,17.5,15.6,30.60,WSW,255,0.0,5.0,92,0.00,,,0.00,Wunderground v.1.15,2013-11-14 11:12:00,
2013-11-14 06:16:00,18.5,17.1,30.60,WSW,255,0.0,5.0,94,0.00,,,0.00,Wunderground v.1.15,2013-11-14 11:16:00,
2013-11-14 06:17:00,18.7,17.5,30.60,WSW,255,0.0,5.0,95,0.00,,,0.00,Wunderground v.1.15,2013-11-14 11:17:00,
2013-11-14 06:18:00,18.7,17.5,30.60,WSW,255,0.0,5.0,95,0.00,,,0.00,Wunderground v.1.15,2013-11-14 11:18:00,
2013-11-14 06:22:00,18.5,16.8,30.60,WSW,255,0.0,5.0,93,0.00,,,0.00,Wunderground v.1.15,2013-11-14 11:22:00,
2013-11-14 06:25:00,18.4,16.5,30.60,WSW,255,1.0,5.0,92,0.00,,,0.00,Wunderground v.1.15,2013-11-14 11:25:00,
2013-11-14 06:27:00,18.3,16.4,30.61,WSW,255,1.0,5.0,92,0.00,,,0.00,Wunderground v.1.15,2013-11-14 11:27:00,
2013-11-14 06:28:00,18.2,16.3,30.61,WSW,255,1.0,5.0,92,0.00,,,0.00,Wunderground v.1.15,2013-11-14 11:28:00,
2013-11-14 06:30:00,18.1,16.2,30.61,WSW,255,1.0,5.0,92,0.00,,,0.00,Wunderground v.1.15,2013-11-14 11:30:00,
2013-11-14 06:31:00,18.0,16.1,30.61,WSW,255,1.0,5.0,92,0.00,,,0.00,Wunderground v.1.15,2013-11-14 11:31:00,
2013-11-14 06:35:00,17.8,15.6,30.61,WSW,255,0.0,5.0,91,0.00,,,0.00,Wunderground v.1.15,2013-11-14 11:35:00,
2013-11-14 06:36:00,17.7,15.5,30.61,WSW,255,0.0,5.0,91,0.00,,,0.00,Wunderground v.1.15,2013-11-14 11:36:00,
2013-11-14 06:37:00,17.7,15.5,30.61,WSW,255,0.0,5.0,91,0.00,,,0.00,Wunderground v.1.15,2013-11-14 11:37:00,
2013-11-14 06:40:00,17.5,15.3,30.61,WSW,255,0.0,5.0,91,0.00,,,0.00,Wunderground v.1.15,2013-11-14 11:40:00,
2013-11-14 06:41:00,17.5,15.3,30.61,WSW,255,0.0,5.0,91,0.00,,,0.00,Wunderground v.1.15,2013-11-14 11:41:00,
2013-11-14 06:42:00,17.5,15.6,30.61,WSW,255,0.0,5.0,92,0.00,,,0.00,Wunderground v.1.15,2013-11-14 11:42:00,
2013-11-14 06:46:00,17.6,15.7,30.61,WSW,255,0.0,5.0,92,0.00,,,0.00,Wunderground v.1.15,2013-11-14 11:46:00,
2013-11-14 06:47:00,17.7,15.8,30.61,WSW,255,0.0,5.0,92,0.00,,,0.00,Wunderground v.1.15,2013-11-14 11:47:00,
2013-11-14 06:48:00,17.7,15.8,30.61,WSW,255,0.0,5.0,92,0.00,,,0.00,Wunderground v.1.15,2013-11-14 11:48:00,
2013-11-14 06:50:00,17.6,15.7,30.61,WSW,255,0.0,5.0,92,0.00,,,0.00,Wunderground v.1.15,2013-11-14 11:50:00,
2013-11-14 06:53:00,17.5,15.6,30.61,WSW,255,0.0,5.0,92,0.00,,,0.00,Wunderground v.1.15,2013-11-14 11:53:00,
2013-11-14 06:55:00,17.5,15.6,30.61,WSW,255,0.0,5.0,92,0.00,,,0.00,Wunderground v.1.15,2013-11-14 11:55:00,
2013-11-14 06:58:00,17.6,15.7,30.61,WSW,255,0.0,5.0,92,0.00,,,0.00,Wunderground v.1.15,2013-11-14 11:58:00,
2013-11-14 06:59:00,17.7,16.0,30.61,WSW,255,0.0,5.0,93,0.00,,,0.00,Wunderground v.1.15,2013-11-14 11:59:00,
2013-11-14 07:00:00,17.7,16.0,30.62,WSW,255,0.0,5.0,93,0.00,,,0.00,Wunderground v.1.15,2013-11-14 12:00:00,
2013-11-14 07:03:00,18.0,16.3,30.62,WSW,255,0.0,5.0,93,0.00,,,0.00,Wunderground v.1.15,2013-11-14 12:03:00,
2013-11-14 07:06:00,17.9,16.0,30.62,WSW,249,1.0,5.0,92,0.00,,,0.00,Wunderground v.1.15,2013-11-14 12:06:00,
2013-11-14 07:08:00,17.9,16.0,30.62,WSW,243,1.0,5.0,92,0.00,,,0.00,Wunderground v.1.15,2013-11-14 12:08:00,
2013-11-14 07:09:00,18.0,16.1,30.62,WSW,243,1.0,5.0,92,0.00,,,0.00,Wunderground v.1.15,2013-11-14 12:09:00,
2013-11-14 07:11:00,18.2,16.3,30.62,WSW,243,1.0,5.0,92,0.00,,,0.00,Wunderground v.1.15,2013-11-14 12:11:00,
2013-11-14 07:12:00,18.3,16.4,30.62,WSW,243,1.0,5.0,92,0.00,,,0.00,Wunderground v.1.15,2013-11-14 12:12:00,
2013-11-14 07:14:00,18.5,16.6,30.62,WSW,243,1.0,5.0,92,0.00,,,0.00,Wunderground v.1.15,2013-11-14 12:14:00,
2013-11-14 07:16:00,18.8,16.9,30.62,WSW,243,0.0,5.0,92,0.00,,,0.00,Wunderground v.1.15,2013-11-14 12:16:00,
2013-11-14 07:17:00,18.9,17.0,30.62,WSW,243,0.0,5.0,92,0.00,,,0.00,Wunderground v.1.15,2013-11-14 12:17:00,
2013-11-14 07:18:00,19.1,17.2,30.62,WSW,243,0.0,5.0,92,0.00,,,0.00,Wunderground v.1.15,2013-11-14 12:18:00,
2013-11-14 07:20:00,19.4,17.5,30.62,WSW,243,0.0,5.0,92,0.00,,,0.00,Wunderground v.1.15,2013-11-14 12:20:00,
2013-11-14 07:22:00,19.7,17.5,30.62,WSW,243,0.0,5.0,91,0.00,,,0.00,Wunderground v.1.15,2013-11-14 12:22:00,
2013-11-14 07:25:00,19.6,16.9,30.62,WSW,243,0.0,5.0,89,0.00,,,0.00,Wunderground v.1.15,2013-11-14 12:25:00,
2013-11-14 07:26:00,19.6,16.9,30.62,WSW,243,0.0,5.0,89,0.00,,,0.00,Wunderground v.1.15,2013-11-14 12:26:00,
2013-11-14 07:28:00,19.6,16.9,30.62,WSW,243,1.0,5.0,89,0.00,,,0.00,Wunderground v.1.15,2013-11-14 12:28:00,
2013-11-14 07:30:00,19.7,17.2,30.62,WSW,243,1.0,1.0,90,0.00,,,0.00,Wunderground v.1.15,2013-11-14 12:30:00,
2013-11-14 07:31:00,19.8,17.3,30.62,WSW,243,0.0,5.0,90,0.00,,,0.00,Wunderground v.1.15,2013-11-14 12:31:00,
2013-11-14 07:32:00,20.0,17.5,30.62,WSW,243,0.0,5.0,90,0.00,,,0.00,Wunderground v.1.15,2013-11-14 12:32:00,
2013-11-14 07:36:00,20.6,17.9,30.62,WSW,243,0.0,5.0,89,0.00,,,0.00,Wunderground v.1.15,2013-11-14 12:36:00,
2013-11-14 07:37:00,20.7,18.2,30.62,WSW,243,0.0,5.0,90,0.00,,,0.00,Wunderground v.1.15,2013-11-14 12:37:00,
2013-11-14 07:39:00,21.2,19.2,30.62,WSW,243,0.0,5.0,92,0.00,,,0.00,Wunderground v.1.15,2013-11-14 12:39:00,
2013-11-14 07:42:00,21.7,20.0,30.62,WSW,243,0.0,5.0,93,0.00,,,0.00,Wunderground v.1.15,2013-11-14 12:42:00,
2013-11-14 07:44:00,21.9,19.7,30.62,WSW,243,0.0,5.0,91,0.00,,,0.00,Wunderground v.1.15,2013-11-14 12:44:00,
2013-11-14 07:45:00,22.0,19.5,30.62,WSW,243,0.0,5.0,90,0.00,,,0.00,Wunderground v.1.15,2013-11-14 12:45:00,
2013-11-14 07:47:00,22.2,19.7,30.62,WSW,243,0.0,5.0,90,0.00,,,0.00,Wunderground v.1.15,2013-11-14 12:47:00,
2013-11-14 07:50:00,22.2,19.2,30.62,WSW,243,0.0,5.0,88,0.00,,,0.00,Wunderground v.1.15,2013-11-14 12:50:00,
2013-11-14 07:52:00,22.1,18.8,30.62,WSW,243,0.0,5.0,87,0.00,,,0.00,Wunderground v.1.15,2013-11-14 12:52:00,
2013-11-14 07:54:00,22.2,18.9,30.62,WSW,243,0.0,5.0,87,0.00,,,0.00,Wunderground v.1.15,2013-11-14 12:54:00,
2013-11-14 07:56:00,22.3,19.0,30.62,WSW,243,0.0,5.0,87,0.00,,,0.00,Wunderground v.1.15,2013-11-14 12:56:00,
2013-11-14 07:57:00,22.4,19.1,30.62,WSW,243,0.0,5.0,87,0.00,,,0.00,Wunderground v.1.15,2013-11-14 12:57:00,
2013-11-14 07:59:00,22.3,19.0,30.62,WSW,243,0.0,5.0,87,0.00,,,0.00,Wunderground v.1.15,2013-11-14 12:59:00,
2013-11-14 08:01:00,22.2,18.9,30.62,WSW,243,0.0,5.0,87,0.00,,,0.00,Wunderground v.1.15,2013-11-14 13:01:00,
2013-11-14 08:05:00,22.2,19.2,30.63,WSW,243,1.0,5.0,88,0.00,,,0.00,Wunderground v.1.15,2013-11-14 13:05:00,
2013-11-14 08:06:00,22.2,19.2,30.63,WSW,242,1.0,5.0,88,0.00,,,0.00,Wunderground v.1.15,2013-11-14 13:06:00,
2013-11-14 08:07:00,22.3,19.3,30.63,WSW,243,1.0,5.0,88,0.00,,,0.00,Wunderground v.1.15,2013-11-14 13:07:00,
2013-11-14 08:09:00,22.4,19.4,30.63,WSW,242,1.0,5.0,88,0.00,,,0.00,Wunderground v.1.15,2013-11-14 13:09:00,
2013-11-14 08:11:00,22.7,19.4,30.63,WSW,242,1.0,5.0,87,0.00,,,0.00,Wunderground v.1.15,2013-11-14 13:11:00,
2013-11-14 08:12:00,22.8,19.5,30.63,WSW,242,1.0,5.0,87,0.00,,,0.00,Wunderground v.1.15,2013-11-14 13:12:00,
2013-11-14 08:14:00,23.1,19.5,30.63,WSW,242,1.0,5.0,86,0.00,,,0.00,Wunderground v.1.15,2013-11-14 13:14:00,
2013-11-14 08:16:00,23.4,19.8,30.63,WSW,242,1.0,5.0,86,0.00,,,0.00,Wunderground v.1.15,2013-11-14 13:16:00,
2013-11-14 08:17:00,23.5,19.9,30.62,WSW,242,1.0,5.0,86,0.00,,,0.00,Wunderground v.1.15,2013-11-14 13:17:00,
2013-11-14 08:21:00,24.0,20.4,30.62,WSW,242,1.0,5.0,86,0.00,,,0.00,Wunderground v.1.15,2013-11-14 13:21:00,
2013-11-14 08:22:00,24.1,20.2,30.63,WSW,242,1.0,5.0,85,0.00,,,0.00,Wunderground v.1.15,2013-11-14 13:22:00,
2013-11-14 08:23:00,24.3,20.4,30.63,WSW,241,1.0,5.0,85,0.00,,,0.00,Wunderground v.1.15,2013-11-14 13:23:00,
2013-11-14 08:26:00,24.8,20.9,30.63,SW,219,1.0,5.0,85,0.00,,,0.00,Wunderground v.1.15,2013-11-14 13:26:00,
2013-11-14 08:27:00,24.9,20.8,30.62,SW,218,2.0,5.0,84,0.00,,,0.00,Wunderground v.1.15,2013-11-14 13:27:00,
2013-11-14 08:28:00,25.1,20.7,30.62,SW,218,2.0,5.0,83,0.00,,,0.00,Wunderground v.1.15,2013-11-14 13:28:00,
2013-11-14 08:29:00,25.3,21.1,30.62,SW,218,2.0,5.0,84,0.00,,,0.00,Wunderground v.1.15,2013-11-14 13:29:00,
2013-11-14 08:31:00,25.6,21.2,30.62,SW,235,2.0,5.0,83,0.00,,,0.00,Wunderground v.1.15,2013-11-14 13:31:00,
2013-11-14 08:33:00,25.8,21.1,30.62,SSW,194,2.0,5.0,82,0.00,,,0.00,Wunderground v.1.15,2013-11-14 13:33:00,
2013-11-14 08:34:00,26.0,21.3,30.62,SSW,194,2.0,5.0,82,0.00,,,0.00,Wunderground v.1.15,2013-11-14 13:34:00,
2013-11-14 08:36:00,26.2,21.5,30.62,SSW,194,2.0,5.0,82,0.00,,,0.00,Wunderground v.1.15,2013-11-14 13:36:00,
2013-11-14 08:38:00,26.5,22.0,30.62,SSW,192,2.0,5.0,83,0.00,,,0.00,Wunderground v.1.15,2013-11-14 13:38:00,
2013-11-14 08:39:00,26.7,21.9,30.62,South,190,2.0,5.0,82,0.00,,,0.00,Wunderground v.1.15,2013-11-14 13:39:00,
2013-11-14 08:40:00,26.8,21.8,30.62,South,190,2.0,5.0,81,0.00,,,0.00,Wunderground v.1.15,2013-11-14 13:40:00,
2013-11-14 08:41:00,26.9,21.6,30.62,South,190,2.0,5.0,80,0.00,,,0.00,Wunderground v.1.15,2013-11-14 13:41:00,
2013-11-14 08:42:00,27.0,21.4,30.62,South,191,2.0,5.0,79,0.00,,,0.00,Wunderground v.1.15,2013-11-14 13:42:00,
2013-11-14 08:43:00,27.1,21.5,30.62,SSW,198,2.0,5.0,79,0.00,,,0.00,Wunderground v.1.15,2013-11-14 13:43:00,
2013-11-14 08:45:00,27.2,21.2,30.63,SSW,194,3.0,5.0,78,0.00,,,0.00,Wunderground v.1.15,2013-11-14 13:45:00,
2013-11-14 08:47:00,27.3,21.3,30.63,SSW,198,3.0,5.0,78,0.00,,,0.00,Wunderground v.1.15,2013-11-14 13:47:00,
2013-11-14 08:48:00,27.4,21.4,30.63,SSW,192,3.0,5.0,78,0.00,,,0.00,Wunderground v.1.15,2013-11-14 13:48:00,
2013-11-14 08:49:00,27.5,21.5,30.63,SSW,194,3.0,5.0,78,0.00,,,0.00,Wunderground v.1.15,2013-11-14 13:49:00,
2013-11-14 08:52:00,27.9,22.2,30.63,SSW,195,3.0,7.0,79,0.00,,,0.00,Wunderground v.1.15,2013-11-14 13:52:00,
2013-11-14 08:54:00,28.2,21.6,30.63,SSW,194,4.0,7.0,76,0.00,,,0.00,Wunderground v.1.15,2013-11-14 13:54:00,
2013-11-14 08:55:00,28.3,21.7,30.63,SSW,193,4.0,7.0,76,0.00,,,0.00,Wunderground v.1.15,2013-11-14 13:55:00,
2013-11-14 08:58:00,28.6,21.7,30.63,SSW,207,4.0,7.0,75,0.00,,,0.00,Wunderground v.1.15,2013-11-14 13:58:00,
2013-11-14 08:59:00,28.7,21.5,30.63,SSW,209,5.0,7.0,74,0.00,,,0.00,Wunderground v.1.15,2013-11-14 13:59:00,
2013-11-14 09:00:00,28.8,21.6,30.63,SSW,212,5.0,5.0,74,0.00,,,0.00,Wunderground v.1.15,2013-11-14 14:00:00,
2013-11-14 09:01:00,28.9,21.3,30.63,SSW,198,5.0,5.0,73,0.00,,,0.00,Wunderground v.1.15,2013-11-14 14:01:00,
2013-11-14 09:03:00,29.2,21.9,30.63,South,177,5.0,5.0,74,0.00,,,0.00,Wunderground v.1.15,2013-11-14 14:03:00,
2013-11-14 09:05:00,29.6,22.0,30.63,South,183,4.0,6.0,73,0.00,,,0.00,Wunderground v.1.15,2013-11-14 14:05:00,
2013-11-14 09:07:00,29.8,22.5,30.63,South,182,4.0,6.0,74,0.00,,,0.00,Wunderground v.1.15,2013-11-14 14:07:00,
2013-11-14 09:08:00,30.0,22.4,30.63,SSW,193,4.0,6.0,73,0.00,,,0.00,Wunderground v.1.15,2013-11-14 14:08:00,
2013-11-14 09:09:00,30.2,22.3,30.63,SSW,194,4.0,6.0,72,0.00,,,0.00,Wunderground v.1.15,2013-11-14 14:09:00,
2013-11-14 09:14:00,31.0,23.7,30.63,SSW,194,3.0,5.0,74,0.00,,,0.00,Wunderground v.1.15,2013-11-14 14:14:00,
2013-11-14 09:16:00,31.4,23.4,30.63,South,184,2.0,5.0,72,0.00,,,0.00,Wunderground v.1.15,2013-11-14 14:16:00,
2013-11-14 09:18:00,31.8,23.1,30.63,South,187,2.0,5.0,70,0.00,,,0.00,Wunderground v.1.15,2013-11-14 14:18:00,
2013-11-14 09:19:00,31.9,23.6,30.63,South,187,2.0,5.0,71,0.00,,,0.00,Wunderground v.1.15,2013-11-14 14:19:00,
2013-11-14 09:20:00,32.1,23.8,30.63,South,187,1.0,5.0,71,0.00,,,0.00,Wunderground v.1.15,2013-11-14 14:20:00,
2013-11-14 09:24:00,32.6,23.2,30.63,SSW,197,1.0,5.0,68,0.00,,,0.00,Wunderground v.1.15,2013-11-14 14:24:00,
2013-11-14 09:25:00,32.7,22.9,30.63,SSW,198,1.0,5.0,67,0.00,,,0.00,Wunderground v.1.15,2013-11-14 14:25:00,
2013-11-14 09:27:00,33.0,22.9,30.62,SSW,211,2.0,5.0,66,0.00,,,0.00,Wunderground v.1.15,2013-11-14 14:27:00,
2013-11-14 09:28:00,33.1,23.0,30.63,SSW,202,2.0,6.0,66,0.00,,,0.00,Wunderground v.1.15,2013-11-14 14:28:00,
2013-11-14 09:30:00,33.2,22.3,30.63,WSW,244,3.0,5.0,64,0.00,,,0.00,Wunderground v.1.15,2013-11-14 14:30:00,
2013-11-14 09:31:00,33.3,22.1,30.63,SW,236,3.0,6.0,63,0.00,,,0.00,Wunderground v.1.15,2013-11-14 14:31:00,
2013-11-14 09:32:00,33.4,22.1,30.63,WSW,245,4.0,6.0,63,0.00,,,0.00,Wunderground v.1.15,2013-11-14 14:32:00,
2013-11-14 09:34:00,33.5,22.2,30.63,SW,232,5.0,6.0,63,0.00,,,0.00,Wunderground v.1.15,2013-11-14 14:34:00,
2013-11-14 09:35:00,33.6,22.3,30.63,SW,232,5.0,6.0,63,0.00,,,0.00,Wunderground v.1.15,2013-11-14 14:35:00,
2013-11-14 09:38:00,34.0,23.1,30.63,WSW,244,4.0,6.0,64,0.00,,,0.00,Wunderground v.1.15,2013-11-14 14:38:00,
2013-11-14 09:40:00,34.3,21.8,30.63,SW,235,4.0,6.0,60,0.00,,,0.00,Wunderground v.1.15,2013-11-14 14:40:00,
2013-11-14 09:42:00,34.4,21.9,30.62,WSW,244,4.0,6.0,60,0.00,,,0.00,Wunderground v.1.15,2013-11-14 14:42:00,
2013-11-14 09:43:00,34.5,21.6,30.62,WSW,246,4.0,6.0,59,0.00,,,0.00,Wunderground v.1.15,2013-11-14 14:43:00,
2013-11-14 09:47:00,35.1,23.8,30.63,SSW,200,4.0,6.0,63,0.00,,,0.00,Wunderground v.1.15,2013-11-14 14:47:00,
2013-11-14 09:48:00,35.2,23.5,30.63,SSW,200,4.0,6.0,62,0.00,,,0.00,Wunderground v.1.15,2013-11-14 14:48:00,
2013-11-14 09:49:00,35.3,23.6,30.63,SSW,201,4.0,6.0,62,0.00,,,0.00,Wunderground v.1.15,2013-11-14 14:49:00,
2013-11-14 09:51:00,35.6,23.1,30.63,SW,233,3.0,5.0,60,0.00,,,0.00,Wunderground v.1.15,2013-11-14 14:51:00,
2013-11-14 09:52:00,35.8,23.3,30.63,SW,233,3.0,5.0,60,0.00,,,0.00,Wunderground v.1.15,2013-11-14 14:52:00,
2013-11-14 09:53:00,35.9,24.1,30.63,South,178,3.0,5.0,62,0.00,,,0.00,Wunderground v.1.15,2013-11-14 14:53:00,
2013-11-14 09:56:00,36.6,23.6,30.63,WNW,294,2.0,5.0,59,0.00,,,0.00,Wunderground v.1.15,2013-11-14 14:56:00,
2013-11-14 09:59:00,37.1,22.4,30.63,SW,234,2.0,6.0,55,0.00,,,0.00,Wunderground v.1.15,2013-11-14 14:59:00,
2013-11-14 10:00:00,37.2,22.1,30.63,SW,214,3.0,5.0,54,0.00,,,0.00,Wunderground v.1.15,2013-11-14 15:00:00,
2013-11-14 10:02:00,37.5,22.3,30.62,WSW,247,3.0,7.0,54,0.00,,,0.00,Wunderground v.1.15,2013-11-14 15:02:00,
2013-11-14 10:04:00,37.7,21.6,30.63,WSW,252,4.0,7.0,52,0.00,,,0.00,Wunderground v.1.15,2013-11-14 15:04:00,
2013-11-14 10:05:00,37.8,22.2,30.63,SW,235,4.0,7.0,53,0.00,,,0.00,Wunderground v.1.15,2013-11-14 15:05:00,
2013-11-14 10:06:00,37.9,22.3,30.63,SSW,204,4.0,7.0,53,0.00,,,0.00,Wunderground v.1.15,2013-11-14 15:06:00,
2013-11-14 10:07:00,38.0,22.4,30.63,SSW,208,4.0,7.0,53,0.00,,,0.00,Wunderground v.1.15,2013-11-14 15:07:00,
2013-11-14 10:10:00,38.4,22.3,30.63,SW,227,4.0,4.0,52,0.00,,,0.00,Wunderground v.1.15,2013-11-14 15:10:00,
2013-11-14 10:11:00,38.6,22.0,30.63,WSW,247,4.0,7.0,51,0.00,,,0.00,Wunderground v.1.15,2013-11-14 15:11:00,
2013-11-14 10:12:00,38.7,21.6,30.63,WSW,247,4.0,7.0,50,0.00,,,0.00,Wunderground v.1.15,2013-11-14 15:12:00,
2013-11-14 10:13:00,38.8,22.2,30.63,SW,229,4.0,7.0,51,0.00,,,0.00,Wunderground v.1.15,2013-11-14 15:13:00,
2013-11-14 10:15:00,39.1,22.5,30.63,West,272,4.0,7.0,51,0.00,,,0.00,Wunderground v.1.15,2013-11-14 15:15:00,
2013-11-14 10:18:00,39.3,22.2,30.62,WSW,242,5.0,7.0,50,0.00,,,0.00,Wunderground v.1.15,2013-11-14 15:18:00,
2013-11-14 10:21:00,39.7,22.1,30.62,West,259,5.0,5.0,49,0.00,,,0.00,Wunderground v.1.15,2013-11-14 15:21:00,
2013-11-14 10:22:00,39.8,22.2,30.62,WSW,249,5.0,6.0,49,0.00,,,0.00,Wunderground v.1.15,2013-11-14 15:22:00,
2013-11-14 10:24:00,40.0,22.4,30.62,SSW,202,5.0,7.0,49,0.00,,,0.00,Wunderground v.1.15,2013-11-14 15:24:00,
2013-11-14 10:26:00,40.1,22.0,30.63,WSW,243,5.0,7.0,48,0.00,,,0.00,Wunderground v.1.15,2013-11-14 15:26:00,
2013-11-14 10:27:00,40.3,22.1,30.62,South,186,5.0,7.0,48,0.00,,,0.00,Wunderground v.1.15,2013-11-14 15:27:00,
2013-11-14 10:29:00,40.6,21.4,30.63,SSW,207,5.0,7.0,46,0.00,,,0.00,Wunderground v.1.15,2013-11-14 15:29:00,
2013-11-14 10:30:00,40.7,21.5,30.62,SSW,202,5.0,8.0,46,0.00,,,0.00,Wunderground v.1.15,2013-11-14 15:30:00,
2013-11-14 10:32:00,40.7,21.5,30.62,SSW,205,6.0,8.0,46,0.00,,,0.00,Wunderground v.1.15,2013-11-14 15:32:00,
2013-11-14 10:33:00,40.8,20.5,30.62,SSW,195,6.0,10.0,44,0.00,,,0.00,Wunderground v.1.15,2013-11-14 15:33:00,
2013-11-14 10:34:00,40.7,20.5,30.62,SSW,193,7.0,10.0,44,0.00,,,0.00,Wunderground v.1.15,2013-11-14 15:34:00,
2013-11-14 10:37:00,40.9,21.7,30.62,SSW,202,7.0,10.0,46,0.00,,,0.00,Wunderground v.1.15,2013-11-14 15:37:00,
2013-11-14 10:38:00,40.9,21.2,30.62,SSW,202,8.0,10.0,45,0.00,,,0.00,Wunderground v.1.15,2013-11-14 15:38:00,
2013-11-14 10:39:00,41.1,21.9,30.62,WSW,244,8.0,10.0,46,0.00,,,0.00,Wunderground v.1.15,2013-11-14 15:39:00,
2013-11-14 10:42:00,41.2,20.9,30.62,SSW,194,8.0,8.0,44,0.00,,,0.00,Wunderground v.1.15,2013-11-14 15:42:00,
2013-11-14 10:45:00,41.3,21.0,30.63,SW,219,7.0,8.0,44,0.00,,,0.00,Wunderground v.1.15,2013-11-14 15:45:00,
2013-11-14 10:46:00,41.3,21.0,30.62,SW,223,7.0,8.0,44,0.00,,,0.00,Wunderground v.1.15,2013-11-14 15:46:00,
2013-11-14 10:47:00,41.4,21.1,30.63,SW,214,7.0,8.0,44,0.00,,,0.00,Wunderground v.1.15,2013-11-14 15:47:00,
2013-11-14 10:49:00,41.5,20.6,30.62,South,179,7.0,8.0,43,0.00,,,0.00,Wunderground v.1.15,2013-11-14 15:49:00,
2013-11-14 10:52:00,41.9,21.0,30.62,SSW,195,7.0,7.0,43,0.00,,,0.00,Wunderground v.1.15,2013-11-14 15:52:00,
2013-11-14 10:53:00,42.0,21.1,30.62,South,186,7.0,9.0,43,0.00,,,0.00,Wunderground v.1.15,2013-11-14 15:53:00,
2013-11-14 10:54:00,42.0,21.1,30.62,SSW,196,7.0,9.0,43,0.00,,,0.00,Wunderground v.1.15,2013-11-14 15:54:00,
2013-11-14 10:55:00,42.1,21.2,30.62,SSW,210,7.0,9.0,43,0.00,,,0.00,Wunderground v.1.15,2013-11-14 15:55:00,
2013-11-14 10:59:00,42.4,20.9,30.62,SSW,196,7.0,9.0,42,0.00,,,0.00,Wunderground v.1.15,2013-11-14 15:59:00,
2013-11-14 11:00:00,42.6,21.1,30.62,South,178,7.0,7.0,42,0.00,,,0.00,Wunderground v.1.15,2013-11-14 16:00:00,
2013-11-14 11:01:00,42.9,21.9,30.62,South,179,6.0,7.0,43,0.00,,,0.00,Wunderground v.1.15,2013-11-14 16:01:00,
2013-11-14 11:04:00,43.5,20.7,30.62,SSW,205,6.0,8.0,40,0.00,,,0.00,Wunderground v.1.15,2013-11-14 16:04:00,
2013-11-14 11:05:00,43.6,20.8,30.62,WSW,240,6.0,8.0,40,0.00,,,0.00,Wunderground v.1.15,2013-11-14 16:05:00,
2013-11-14 11:06:00,43.7,21.5,30.62,WSW,250,6.0,8.0,41,0.00,,,0.00,Wunderground v.1.15,2013-11-14 16:06:00,
2013-11-14 11:07:00,43.7,20.3,30.62,SW,234,5.0,8.0,39,0.00,,,0.00,Wunderground v.1.15,2013-11-14 16:07:00,
2013-11-14 11:08:00,43.8,20.4,30.62,WSW,242,5.0,8.0,39,0.00,,,0.00,Wunderground v.1.15,2013-11-14 16:08:00,
2013-11-14 11:10:00,44.1,20.7,30.61,WSW,244,6.0,6.0,39,0.00,,,0.00,Wunderground v.1.15,2013-11-14 16:10:00,
2013-11-14 11:12:00,44.2,20.8,30.61,WSW,258,6.0,8.0,39,0.00,,,0.00,Wunderground v.1.15,2013-11-14 16:12:00,
2013-11-14 11:14:00,44.6,21.7,30.61,WSW,247,5.0,8.0,40,0.00,,,0.00,Wunderground v.1.15,2013-11-14 16:14:00,
2013-11-14 11:17:00,45.0,20.9,30.61,West,281,5.0,8.0,38,0.00,,,0.00,Wunderground v.1.15,2013-11-14 16:17:00,
2013-11-14 11:19:00,45.2,20.4,30.61,SSW,201,5.0,8.0,37,0.00,,,0.00,Wunderground v.1.15,2013-11-14 16:19:00,
2013-11-14 11:21:00,45.4,21.2,30.61,SSW,198,5.0,7.0,38,0.00,,,0.00,Wunderground v.1.15,2013-11-14 16:21:00,
2013-11-14 11:22:00,45.4,20.6,30.61,South,186,5.0,8.0,37,0.00,,,0.00,Wunderground v.1.15,2013-11-14 16:22:00,
2013-11-14 11:24:00,45.5,21.3,30.61,SSW,202,5.0,8.0,38,0.00,,,0.00,Wunderground v.1.15,2013-11-14 16:24:00,
2013-11-14 11:26:00,45.5,20.1,30.61,SSW,194,6.0,8.0,36,0.00,,,0.00,Wunderground v.1.15,2013-11-14 16:26:00,
2013-11-14 11:28:00,45.6,20.8,30.60,South,188,6.0,8.0,37,0.00,,,0.00,Wunderground v.1.15,2013-11-14 16:28:00,
2013-11-14 11:29:00,45.7,20.9,30.60,WSW,251,6.0,8.0,37,0.00,,,0.00,Wunderground v.1.15,2013-11-14 16:29:00,
2013-11-14 11:32:00,46.3,21.4,30.60,West,269,5.0,6.0,37,0.00,,,0.00,Wunderground v.1.15,2013-11-14 16:32:00,
2013-11-14 11:34:00,46.5,20.9,30.60,WSW,257,5.0,6.0,36,0.00,,,0.00,Wunderground v.1.15,2013-11-14 16:34:00,
2013-11-14 11:35:00,46.6,21.7,30.60,SSW,199,4.0,6.0,37,0.00,,,0.00,Wunderground v.1.15,2013-11-14 16:35:00,
2013-11-14 11:37:00,47.0,22.0,30.60,SSW,196,4.0,8.0,37,0.00,,,0.00,Wunderground v.1.15,2013-11-14 16:37:00,
2013-11-14 11:42:00,47.6,21.9,30.59,West,281,4.0,6.0,36,0.00,,,0.00,Wunderground v.1.15,2013-11-14 16:42:00,
2013-11-14 11:44:00,47.7,20.0,30.59,SSW,194,4.0,6.0,33,0.00,,,0.00,Wunderground v.1.15,2013-11-14 16:44:00,
2013-11-14 11:47:00,48.0,20.2,30.59,West,261,4.0,6.0,33,0.00,,,0.00,Wunderground v.1.15,2013-11-14 16:47:00,
2013-11-14 11:48:00,48.0,20.2,30.59,SSW,198,3.0,6.0,33,0.00,,,0.00,Wunderground v.1.15,2013-11-14 16:48:00,
2013-11-14 11:49:00,48.2,21.1,30.59,WSW,249,3.0,6.0,34,0.00,,,0.00,Wunderground v.1.15,2013-11-14 16:49:00,
2013-11-14 11:50:00,48.3,19.8,30.59,SW,233,3.0,6.0,32,0.00,,,0.00,Wunderground v.1.15,2013-11-14 16:50:00,
2013-11-14 11:52:00,48.9,21.0,30.59,West,260,4.0,7.0,33,0.00,,,0.00,Wunderground v.1.15,2013-11-14 16:52:00,
2013-11-14 11:53:00,49.2,21.3,30.59,WSW,242,4.0,7.0,33,0.00,,,0.00,Wunderground v.1.15,2013-11-14 16:53:00,
2013-11-14 11:55:00,49.3,19.9,30.58,North,351,5.0,7.0,31,0.00,,,0.00,Wunderground v.1.15,2013-11-14 16:55:00,
2013-11-14 11:56:00,49.4,20.7,30.58,NNW,336,4.0,7.0,32,0.00,,,0.00,Wunderground v.1.15,2013-11-14 16:56:00,
2013-11-14 11:57:00,49.5,20.8,30.58,SSW,205,4.0,7.0,32,0.00,,,0.00,Wunderground v.1.15,2013-11-14 16:57:00,
2013-11-14 11:59:00,49.7,19.5,30.58,SW,217,5.0,7.0,30,0.00,,,0.00,Wunderground v.1.15,2013-11-14 16:59:00,
2013-11-14 12:01:00,50.0,20.5,30.58,WSW,249,5.0,8.0,31,0.00,,,0.00,Wunderground v.1.15,2013-11-14 17:01:00,
2013-11-14 12:03:00,50.2,19.9,30.58,SW,214,5.0,8.0,30,0.00,,,0.00,Wunderground v.1.15,2013-11-14 17:03:00,
2013-11-14 12:05:00,50.5,20.2,30.58,WSW,249,5.0,8.0,30,0.00,,,0.00,Wunderground v.1.15,2013-11-14 17:05:00,
2013-11-14 12:06:00,50.5,19.4,30.58,WSW,256,5.0,8.0,29,0.00,,,0.00,Wunderground v.1.15,2013-11-14 17:06:00,
2013-11-14 12:09:00,50.8,19.6,30.58,North,355,5.0,8.0,29,0.00,,,0.00,Wunderground v.1.15,2013-11-14 17:09:00,
2013-11-14 12:11:00,51.0,19.0,30.58,West,263,5.0,6.0,28,0.00,,,0.00,Wunderground v.1.15,2013-11-14 17:11:00,
2013-11-14 12:12:00,51.2,19.2,30.58,SW,225,5.0,6.0,28,0.00,,,0.00,Wunderground v.1.15,2013-11-14 17:12:00,
2013-11-14 12:15:00,51.3,18.4,30.57,WSW,252,5.0,6.0,27,0.00,,,0.00,Wunderground v.1.15,2013-11-14 17:15:00,
2013-11-14 12:16:00,51.3,18.4,30.57,WSW,242,5.0,10.0,27,0.00,,,0.00,Wunderground v.1.15,2013-11-14 17:16:00,
2013-11-14 12:17:00,51.4,17.6,30.58,West,281,5.0,10.0,26,0.00,,,0.00,Wunderground v.1.15,2013-11-14 17:17:00,
2013-11-14 12:22:00,51.6,11.8,30.57,NNW,328,7.0,10.0,20,0.00,,,0.00,Wunderground v.1.15,2013-11-14 17:22:00,
2013-11-14 12:24:00,51.8,13.0,30.57,NW,317,8.0,10.0,21,0.00,,,0.00,Wunderground v.1.15,2013-11-14 17:24:00,
2013-11-14 12:25:00,51.9,13.1,30.57,NNW,342,8.0,10.0,21,0.00,,,0.00,Wunderground v.1.15,2013-11-14 17:25:00,
2013-11-14 12:26:00,51.9,14.2,30.57,NW,325,8.0,10.0,22,0.00,,,0.00,Wunderground v.1.15,2013-11-14 17:26:00,
2013-11-14 12:30:00,52.0,13.2,30.56,NNW,329,7.0,7.0,21,0.00,,,0.00,Wunderground v.1.15,2013-11-14 17:30:00,
2013-11-14 12:31:00,52.0,13.2,30.56,WNW,285,7.0,7.0,21,0.00,,,0.00,Wunderground v.1.15,2013-11-14 17:31:00,
2013-11-14 12:34:00,52.2,13.4,30.56,WNW,290,7.0,10.0,21,0.00,,,0.00,Wunderground v.1.15,2013-11-14 17:34:00,
2013-11-14 12:35:00,52.2,13.4,30.56,West,276,7.0,10.0,21,0.00,,,0.00,Wunderground v.1.15,2013-11-14 17:35:00,
2013-11-14 12:36:00,52.3,14.5,30.56,West,278,7.0,10.0,22,0.00,,,0.00,Wunderground v.1.15,2013-11-14 17:36:00,
2013-11-14 12:37:00,52.3,14.5,30.56,West,279,7.0,10.0,22,0.00,,,0.00,Wunderground v.1.15,2013-11-14 17:37:00,
2013-11-14 12:38:00,52.3,13.5,30.56,NW,323,7.0,10.0,21,0.00,,,0.00,Wunderground v.1.15,2013-11-14 17:38:00,
2013-11-14 12:41:00,52.2,14.4,30.56,West,260,6.0,7.0,22,0.00,,,0.00,Wunderground v.1.15,2013-11-14 17:41:00,
2013-11-14 12:42:00,52.2,14.4,30.56,West,270,6.0,7.0,22,0.00,,,0.00,Wunderground v.1.15,2013-11-14 17:42:00,
2013-11-14 12:43:00,52.3,14.5,30.56,West,275,6.0,7.0,22,0.00,,,0.00,Wunderground v.1.15,2013-11-14 17:43:00,
2013-11-14 12:46:00,52.3,13.5,30.56,West,265,6.0,8.0,21,0.00,,,0.00,Wunderground v.1.15,2013-11-14 17:46:00,
2013-11-14 12:47:00,52.3,13.5,30.56,West,274,6.0,8.0,21,0.00,,,0.00,Wunderground v.1.15,2013-11-14 17:47:00,
2013-11-14 12:50:00,52.5,14.7,30.55,NW,305,6.0,7.0,22,0.00,,,0.00,Wunderground v.1.15,2013-11-14 17:50:00,
2013-11-14 12:51:00,52.6,13.7,30.55,WNW,302,6.0,7.0,21,0.00,,,0.00,Wunderground v.1.15,2013-11-14 17:51:00,
2013-11-14 12:52:00,52.6,13.7,30.55,NW,311,6.0,7.0,21,0.00,,,0.00,Wunderground v.1.15,2013-11-14 17:52:00,
2013-11-14 12:53:00,52.7,13.8,30.55,WNW,296,5.0,7.0,21,0.00,,,0.00,Wunderground v.1.15,2013-11-14 17:53:00,
2013-11-14 12:56:00,52.8,12.8,30.55,West,277,5.0,10.0,20,0.00,,,0.00,Wunderground v.1.15,2013-11-14 17:56:00,
2013-11-14 12:57:00,52.8,12.8,30.55,SW,228,5.0,10.0,20,0.00,,,0.00,Wunderground v.1.15,2013-11-14 17:57:00,
2013-11-14 13:00:00,52.9,12.9,30.55,South,179,6.0,6.0,20,0.00,,,0.00,Wunderground v.1.15,2013-11-14 18:00:00,
2013-11-14 13:01:00,53.0,14.0,30.55,South,178,5.0,6.0,21,0.00,,,0.00,Wunderground v.1.15,2013-11-14 18:01:00,
2013-11-14 13:02:00,53.1,13.0,30.55,South,169,5.0,6.0,20,0.00,,,0.00,Wunderground v.1.15,2013-11-14 18:02:00,
2013-11-14 13:04:00,53.2,13.1,30.55,South,189,5.0,6.0,20,0.00,,,0.00,Wunderground v.1.15,2013-11-14 18:04:00,
2013-11-14 13:06:00,53.5,13.4,30.55,SSW,202,4.0,6.0,20,0.00,,,0.00,Wunderground v.1.15,2013-11-14 18:06:00,
2013-11-14 13:07:00,53.5,13.4,30.54,SSW,213,4.0,6.0,20,0.00,,,0.00,Wunderground v.1.15,2013-11-14 18:07:00,
2013-11-14 13:10:00,53.8,13.6,30.54,West,267,3.0,5.0,20,0.00,,,0.00,Wunderground v.1.15,2013-11-14 18:10:00,
2013-11-14 13:11:00,53.9,13.7,30.54,West,265,4.0,5.0,20,0.00,,,0.00,Wunderground v.1.15,2013-11-14 18:11:00,
2013-11-14 13:12:00,53.9,13.7,30.54,West,260,4.0,5.0,20,0.00,,,0.00,Wunderground v.1.15,2013-11-14 18:12:00,
2013-11-14 13:14:00,53.9,14.8,30.54,West,260,4.0,5.0,21,0.00,,,0.00,Wunderground v.1.15,2013-11-14 18:14:00,
2013-11-14 13:17:00,54.0,12.6,30.54,NW,323,4.0,5.0,19,0.00,,,0.00,Wunderground v.1.15,2013-11-14 18:17:00,
2013-11-14 13:18:00,54.0,13.8,30.54,WSW,237,4.0,8.0,20,0.00,,,0.00,Wunderground v.1.15,2013-11-14 18:18:00,
2013-11-14 13:20:00,53.8,13.6,30.54,WSW,237,4.0,4.0,20,0.00,,,0.00,Wunderground v.1.15,2013-11-14 18:20:00,
2013-11-14 13:23:00,53.8,14.7,30.54,South,176,4.0,10.0,21,0.00,,,0.00,Wunderground v.1.15,2013-11-14 18:23:00,
2013-11-14 13:25:00,53.7,14.6,30.54,South,184,5.0,10.0,21,0.00,,,0.00,Wunderground v.1.15,2013-11-14 18:25:00,
2013-11-14 13:26:00,53.7,14.6,30.54,South,191,5.0,10.0,21,0.00,,,0.00,Wunderground v.1.15,2013-11-14 18:26:00,
2013-11-14 13:27:00,53.7,14.6,30.54,SSE,159,5.0,10.0,21,0.00,,,0.00,Wunderground v.1.15,2013-11-14 18:27:00,
2013-11-14 13:30:00,53.9,15.9,30.53,SSE,157,5.0,5.0,22,0.00,,,0.00,Wunderground v.1.15,2013-11-14 18:30:00,
2013-11-14 13:31:00,53.9,14.8,30.53,SSE,156,6.0,6.0,21,0.00,,,0.00,Wunderground v.1.15,2013-11-14 18:31:00,
2013-11-14 13:33:00,54.1,15.0,30.53,SW,227,5.0,6.0,21,0.00,,,0.00,Wunderground v.1.15,2013-11-14 18:33:00,
2013-11-14 13:35:00,54.1,13.9,30.53,WNW,293,5.0,8.0,20,0.00,,,0.00,Wunderground v.1.15,2013-11-14 18:35:00,
2013-11-14 13:36:00,54.1,15.0,30.53,SSW,212,5.0,8.0,21,0.00,,,0.00,Wunderground v.1.15,2013-11-14 18:36:00,
2013-11-14 13:37:00,54.0,14.9,30.53,SSW,207,5.0,8.0,21,0.00,,,0.00,Wunderground v.1.15,2013-11-14 18:37:00,
2013-11-14 13:38:00,54.0,16.0,30.53,SSW,207,4.0,8.0,22,0.00,,,0.00,Wunderground v.1.15,2013-11-14 18:38:00,
2013-11-14 13:40:00,54.2,15.1,30.53,West,271,4.0,4.0,21,0.00,,,0.00,Wunderground v.1.15,2013-11-14 18:40:00,
2013-11-14 13:42:00,54.4,15.2,30.53,SW,228,4.0,5.0,21,0.00,,,0.00,Wunderground v.1.15,2013-11-14 18:42:00,
2013-11-14 13:45:00,54.9,16.7,30.53,SSE,153,3.0,5.0,22,0.00,,,0.00,Wunderground v.1.15,2013-11-14 18:45:00,
2013-11-14 13:46:00,55.0,15.7,30.53,SSE,167,2.0,7.0,21,0.00,,,0.00,Wunderground v.1.15,2013-11-14 18:46:00,
2013-11-14 13:48:00,55.0,15.7,30.53,South,188,3.0,7.0,21,0.00,,,0.00,Wunderground v.1.15,2013-11-14 18:48:00,
2013-11-14 13:50:00,54.9,15.6,30.53,SSE,155,3.0,5.0,21,0.00,,,0.00,Wunderground v.1.15,2013-11-14 18:50:00,
2013-11-14 13:55:00,54.8,14.4,30.52,SSE,158,4.0,6.0,20,0.00,,,0.00,Wunderground v.1.15,2013-11-14 18:55:00,
2013-11-14 13:56:00,54.8,15.6,30.52,SW,230,4.0,6.0,21,0.00,,,0.00,Wunderground v.1.15,2013-11-14 18:56:00,
2013-11-14 13:57:00,55.0,16.8,30.52,SW,223,4.0,6.0,22,0.00,,,0.00,Wunderground v.1.15,2013-11-14 18:57:00,
2013-11-14 13:58:00,55.1,15.8,30.52,SSW,210,4.0,8.0,21,0.00,,,0.00,Wunderground v.1.15,2013-11-14 18:58:00,
2013-11-14 14:01:00,54.9,15.6,30.52,SSW,213,4.0,6.0,21,0.00,,,0.00,Wunderground v.1.15,2013-11-14 19:01:00,
2013-11-14 14:02:00,54.9,15.6,30.52,West,274,4.0,6.0,21,0.00,,,0.00,Wunderground v.1.15,2013-11-14 19:02:00,
2013-11-14 14:04:00,54.9,16.7,30.52,NW,307,4.0,8.0,22,0.00,,,0.00,Wunderground v.1.15,2013-11-14 19:04:00,
2013-11-14 14:06:00,55.0,14.6,30.52,NW,315,5.0,8.0,20,0.00,,,0.00,Wunderground v.1.15,2013-11-14 19:06:00,
2013-11-14 14:07:00,55.0,14.6,30.52,NW,311,5.0,8.0,20,0.00,,,0.00,Wunderground v.1.15,2013-11-14 19:07:00,
2013-11-14 14:09:00,55.0,15.7,30.52,NW,306,5.0,8.0,21,0.00,,,0.00,Wunderground v.1.15,2013-11-14 19:09:00,
2013-11-14 14:10:00,54.9,14.5,30.52,WNW,289,4.0,5.0,20,0.00,,,0.00,Wunderground v.1.15,2013-11-14 19:10:00,
2013-11-14 14:12:00,55.0,15.7,30.52,WSW,257,4.0,5.0,21,0.00,,,0.00,Wunderground v.1.15,2013-11-14 19:12:00,
2013-11-14 14:14:00,55.1,14.7,30.51,SSE,150,4.0,6.0,20,0.00,,,0.00,Wunderground v.1.15,2013-11-14 19:14:00,
2013-11-14 14:16:00,55.0,13.4,30.51,SW,220,4.0,8.0,19,0.00,,,0.00,Wunderground v.1.15,2013-11-14 19:16:00,
2013-11-14 14:17:00,55.0,14.6,30.51,SSW,200,4.0,8.0,20,0.00,,,0.00,Wunderground v.1.15,2013-11-14 19:17:00,
2013-11-14 14:18:00,55.0,14.6,30.51,SSW,195,4.0,8.0,20,0.00,,,0.00,Wunderground v.1.15,2013-11-14 19:18:00,
2013-11-14 14:22:00,55.1,14.7,30.51,SSW,209,3.0,5.0,20,0.00,,,0.00,Wunderground v.1.15,2013-11-14 19:22:00,
2013-11-14 14:23:00,55.3,14.8,30.51,South,179,3.0,5.0,20,0.00,,,0.00,Wunderground v.1.15,2013-11-14 19:23:00,
2013-11-14 14:25:00,55.5,13.8,30.51,South,173,4.0,5.0,19,0.00,,,0.00,Wunderground v.1.15,2013-11-14 19:25:00,
2013-11-14 14:26:00,55.6,15.1,30.51,South,191,3.0,5.0,20,0.00,,,0.00,Wunderground v.1.15,2013-11-14 19:26:00,
2013-11-14 14:28:00,55.7,14.0,30.51,SSW,212,3.0,5.0,19,0.00,,,0.00,Wunderground v.1.15,2013-11-14 19:28:00,
2013-11-14 14:29:00,55.7,12.8,30.51,SW,217,3.0,5.0,18,0.00,,,0.00,Wunderground v.1.15,2013-11-14 19:29:00,
2013-11-14 14:30:00,55.7,14.0,30.51,SW,217,2.0,2.0,19,0.00,,,0.00,Wunderground v.1.15,2013-11-14 19:30:00,
2013-11-14 14:32:00,55.9,14.2,30.50,West,266,3.0,5.0,19,0.00,,,0.00,Wunderground v.1.15,2013-11-14 19:32:00,
2013-11-14 14:33:00,55.9,12.9,30.50,West,280,3.0,5.0,18,0.00,,,0.00,Wunderground v.1.15,2013-11-14 19:33:00,
2013-11-14 14:35:00,55.9,12.9,30.50,WNW,288,2.0,5.0,18,0.00,,,0.00,Wunderground v.1.15,2013-11-14 19:35:00,
2013-11-14 14:36:00,55.9,12.9,30.50,NNE,28,2.0,5.0,18,0.00,,,0.00,Wunderground v.1.15,2013-11-14 19:36:00,
2013-11-14 14:37:00,55.9,12.9,30.50,ENE,71,2.0,5.0,18,0.00,,,0.00,Wunderground v.1.15,2013-11-14 19:37:00,
2013-11-14 14:40:00,55.7,14.0,30.50,ENE,71,2.0,2.0,19,0.00,,,0.00,Wunderground v.1.15,2013-11-14 19:40:00,
2013-11-14 14:42:00,55.9,12.9,30.50,WSW,242,2.0,5.0,18,0.00,,,0.00,Wunderground v.1.15,2013-11-14 19:42:00,
2013-11-14 14:43:00,55.9,12.9,30.50,West,263,2.0,5.0,18,0.00,,,0.00,Wunderground v.1.15,2013-11-14 19:43:00,
2013-11-14 14:45:00,56.3,15.7,30.50,WSW,240,3.0,6.0,20,0.00,,,0.00,Wunderground v.1.15,2013-11-14 19:45:00,
2013-11-14 14:46:00,56.4,15.8,30.50,SSW,211,3.0,7.0,20,0.00,,,0.00,Wunderground v.1.15,2013-11-14 19:46:00,
2013-11-14 14:50:00,56.4,18.0,30.50,SSE,149,4.0,6.0,22,0.00,,,0.00,Wunderground v.1.15,2013-11-14 19:50:00,
2013-11-14 14:51:00,56.3,17.9,30.49,SSW,200,5.0,7.0,22,0.00,,,0.00,Wunderground v.1.15,2013-11-14 19:51:00,
2013-11-14 14:54:00,56.1,17.7,30.50,SW,221,6.0,8.0,22,0.00,,,0.00,Wunderground v.1.15,2013-11-14 19:54:00,
2013-11-14 14:55:00,56.1,18.8,30.49,SW,219,5.0,8.0,23,0.00,,,0.00,Wunderground v.1.15,2013-11-14 19:55:00,
2013-11-14 14:56:00,56.1,18.8,30.49,SW,215,5.0,8.0,23,0.00,,,0.00,Wunderground v.1.15,2013-11-14 19:56:00,
2013-11-14 14:57:00,56.1,18.8,30.49,SE,138,5.0,8.0,23,0.00,,,0.00,Wunderground v.1.15,2013-11-14 19:57:00,
2013-11-14 14:59:00,56.0,18.7,30.49,SSW,212,5.0,8.0,23,0.00,,,0.00,Wunderground v.1.15,2013-11-14 19:59:00,
2013-11-14 15:00:00,56.0,19.7,30.49,SSW,192,5.0,5.0,24,0.00,,,0.00,Wunderground v.1.15,2013-11-14 20:00:00,
2013-11-14 15:02:00,56.1,18.8,30.49,SSE,148,5.0,6.0,23,0.00,,,0.00,Wunderground v.1.15,2013-11-14 20:02:00,
2013-11-14 15:03:00,56.0,18.7,30.49,South,171,5.0,6.0,23,0.00,,,0.00,Wunderground v.1.15,2013-11-14 20:03:00,
2013-11-14 15:04:00,56.0,19.7,30.49,SSW,201,5.0,9.0,24,0.00,,,0.00,Wunderground v.1.15,2013-11-14 20:04:00,
2013-11-14 15:07:00,55.9,18.6,30.49,SSW,196,6.0,9.0,23,0.00,,,0.00,Wunderground v.1.15,2013-11-14 20:07:00,
2013-11-14 15:09:00,55.8,19.5,30.49,SW,225,6.0,9.0,24,0.00,,,0.00,Wunderground v.1.15,2013-11-14 20:09:00,
2013-11-14 15:10:00,55.8,18.5,30.49,WSW,254,6.0,6.0,23,0.00,,,0.00,Wunderground v.1.15,2013-11-14 20:10:00,
2013-11-14 15:13:00,55.7,19.4,30.49,South,188,6.0,8.0,24,0.00,,,0.00,Wunderground v.1.15,2013-11-14 20:13:00,
2013-11-14 15:14:00,55.7,18.4,30.49,SSE,159,6.0,8.0,23,0.00,,,0.00,Wunderground v.1.15,2013-11-14 20:14:00,
2013-11-14 15:15:00,55.6,19.3,30.49,SSE,157,6.0,8.0,24,0.00,,,0.00,Wunderground v.1.15,2013-11-14 20:15:00,
2013-11-14 15:19:00,55.5,19.2,30.49,SSE,148,5.0,8.0,24,0.00,,,0.00,Wunderground v.1.15,2013-11-14 20:19:00,
2013-11-14 15:20:00,55.4,19.2,30.49,ESE,117,5.0,5.0,24,0.00,,,0.00,Wunderground v.1.15,2013-11-14 20:20:00,
2013-11-14 15:21:00,55.3,19.1,30.49,SE,146,5.0,5.0,24,0.00,,,0.00,Wunderground v.1.15,2013-11-14 20:21:00,
2013-11-14 15:23:00,55.4,20.1,30.49,SE,132,4.0,5.0,25,0.00,,,0.00,Wunderground v.1.15,2013-11-14 20:23:00,
2013-11-14 15:24:00,55.4,20.1,30.49,SE,146,4.0,6.0,25,0.00,,,0.00,Wunderground v.1.15,2013-11-14 20:24:00,
2013-11-14 15:25:00,55.5,20.2,30.49,South,185,4.0,6.0,25,0.00,,,0.00,Wunderground v.1.15,2013-11-14 20:25:00,
2013-11-14 15:26:00,55.5,19.2,30.49,SE,142,4.0,11.0,24,0.00,,,0.00,Wunderground v.1.15,2013-11-14 20:26:00,
2013-11-14 15:31:00,55.0,19.8,30.49,SSE,155,6.0,8.0,25,0.00,,,0.00,Wunderground v.1.15,2013-11-14 20:31:00,
2013-11-14 15:32:00,54.9,19.7,30.49,SE,133,6.0,8.0,25,0.00,,,0.00,Wunderground v.1.15,2013-11-14 20:32:00,
2013-11-14 15:37:00,54.8,20.5,30.49,SSE,167,6.0,8.0,26,0.00,,,0.00,Wunderground v.1.15,2013-11-14 20:37:00,
2013-11-14 15:38:00,54.8,20.5,30.49,SE,136,6.0,8.0,26,0.00,,,0.00,Wunderground v.1.15,2013-11-14 20:38:00,
2013-11-14 15:39:00,54.8,20.5,30.49,SE,130,6.0,8.0,26,0.00,,,0.00,Wunderground v.1.15,2013-11-14 20:39:00,
2013-11-14 15:40:00,54.7,19.5,30.49,SE,140,6.0,6.0,25,0.00,,,0.00,Wunderground v.1.15,2013-11-14 20:40:00,
2013-11-14 15:42:00,54.7,20.4,30.48,SE,134,6.0,8.0,26,0.00,,,0.00,Wunderground v.1.15,2013-11-14 20:42:00,
2013-11-14 15:43:00,54.7,20.4,30.48,SSE,148,6.0,8.0,26,0.00,,,0.00,Wunderground v.1.15,2013-11-14 20:43:00,
2013-11-14 15:44:00,54.7,20.4,30.48,SSE,153,6.0,8.0,26,0.00,,,0.00,Wunderground v.1.15,2013-11-14 20:44:00,
2013-11-14 15:45:00,54.7,20.4,30.48,ESE,114,6.0,8.0,26,0.00,,,0.00,Wunderground v.1.15,2013-11-14 20:45:00,
2013-11-14 15:46:00,54.6,20.4,30.48,ESE,121,5.0,8.0,26,0.00,,,0.00,Wunderground v.1.15,2013-11-14 20:46:00,
2013-11-14 15:48:00,54.6,20.4,30.48,SE,146,5.0,8.0,26,0.00,,,0.00,Wunderground v.1.15,2013-11-14 20:48:00,
2013-11-14 15:49:00,54.6,21.2,30.48,SE,144,5.0,11.0,27,0.00,,,0.00,Wunderground v.1.15,2013-11-14 20:49:00,
2013-11-14 15:50:00,54.6,20.4,30.48,SE,134,5.0,6.0,26,0.00,,,0.00,Wunderground v.1.15,2013-11-14 20:50:00,
2013-11-14 15:52:00,54.5,20.3,30.48,SE,140,5.0,6.0,26,0.00,,,0.00,Wunderground v.1.15,2013-11-14 20:52:00,
2013-11-14 15:55:00,54.2,19.1,30.48,ESE,109,6.0,10.0,25,0.00,,,0.00,Wunderground v.1.15,2013-11-14 20:55:00,
2013-11-14 15:56:00,54.1,19.9,30.48,ESE,109,6.0,10.0,26,0.00,,,0.00,Wunderground v.1.15,2013-11-14 20:56:00,
2013-11-14 16:01:00,53.9,19.8,30.48,SE,130,6.0,8.0,26,0.00,,,0.00,Wunderground v.1.15,2013-11-14 21:01:00,
2013-11-14 16:02:00,53.9,19.8,30.48,SE,142,6.0,8.0,26,0.00,,,0.00,Wunderground v.1.15,2013-11-14 21:02:00,
2013-11-14 16:03:00,53.8,19.7,30.48,SSE,163,6.0,8.0,26,0.00,,,0.00,Wunderground v.1.15,2013-11-14 21:03:00,
2013-11-14 16:04:00,53.8,19.7,30.48,South,173,6.0,8.0,26,0.00,,,0.00,Wunderground v.1.15,2013-11-14 21:04:00,
2013-11-14 16:05:00,53.7,19.6,30.48,SE,134,6.0,10.0,26,0.00,,,0.00,Wunderground v.1.15,2013-11-14 21:05:00,
2013-11-14 16:06:00,53.7,19.6,30.49,SSE,168,6.0,10.0,26,0.00,,,0.00,Wunderground v.1.15,2013-11-14 21:06:00,
2013-11-14 16:08:00,53.6,20.4,30.48,SSE,148,6.0,10.0,27,0.00,,,0.00,Wunderground v.1.15,2013-11-14 21:08:00,
2013-11-14 16:10:00,53.6,20.4,30.48,ESE,120,6.0,8.0,27,0.00,,,0.00,Wunderground v.1.15,2013-11-14 21:10:00,
2013-11-14 16:11:00,53.5,20.3,30.49,SSE,149,6.0,8.0,27,0.00,,,0.00,Wunderground v.1.15,2013-11-14 21:11:00,
2013-11-14 16:15:00,53.3,20.1,30.48,SE,139,6.0,8.0,27,0.00,,,0.00,Wunderground v.1.15,2013-11-14 21:15:00,
2013-11-14 16:16:00,53.3,20.1,30.48,SE,143,6.0,8.0,27,0.00,,,0.00,Wunderground v.1.15,2013-11-14 21:16:00,
2013-11-14 16:19:00,53.1,20.0,30.48,SE,124,6.0,8.0,27,0.00,,,0.00,Wunderground v.1.15,2013-11-14 21:19:00,
2013-11-14 16:20:00,53.0,19.9,30.48,SSE,154,6.0,6.0,27,0.00,,,0.00,Wunderground v.1.15,2013-11-14 21:20:00,
2013-11-14 16:21:00,53.0,19.9,30.48,SE,134,6.0,6.0,27,0.00,,,0.00,Wunderground v.1.15,2013-11-14 21:21:00,
2013-11-14 16:22:00,53.0,19.9,30.48,ESE,105,6.0,7.0,27,0.00,,,0.00,Wunderground v.1.15,2013-11-14 21:22:00,
2013-11-14 16:24:00,52.8,19.7,30.48,SE,143,6.0,7.0,27,0.00,,,0.00,Wunderground v.1.15,2013-11-14 21:24:00,
2013-11-14 16:26:00,52.8,20.5,30.48,SSE,153,6.0,8.0,28,0.00,,,0.00,Wunderground v.1.15,2013-11-14 21:26:00,
2013-11-14 16:29:00,52.7,19.6,30.48,ESE,119,6.0,8.0,27,0.00,,,0.00,Wunderground v.1.15,2013-11-14 21:29:00,
2013-11-14 16:30:00,52.7,19.6,30.48,SE,128,6.0,6.0,27,0.00,,,0.00,Wunderground v.1.15,2013-11-14 21:30:00,
2013-11-14 16:31:00,52.6,20.4,30.48,ESE,122,6.0,7.0,28,0.00,,,0.00,Wunderground v.1.15,2013-11-14 21:31:00,
2013-11-14 16:33:00,52.6,20.4,30.48,SE,140,6.0,7.0,28,0.00,,,0.00,Wunderground v.1.15,2013-11-14 21:33:00,
2013-11-14 16:34:00,52.5,20.3,30.48,SE,142,5.0,7.0,28,0.00,,,0.00,Wunderground v.1.15,2013-11-14 21:34:00,
2013-11-14 16:38:00,52.4,20.2,30.48,SSE,163,5.0,7.0,28,0.00,,,0.00,Wunderground v.1.15,2013-11-14 21:38:00,
2013-11-14 16:39:00,52.4,21.0,30.48,SSE,157,4.0,7.0,29,0.00,,,0.00,Wunderground v.1.15,2013-11-14 21:39:00,
2013-11-14 16:40:00,52.4,21.0,30.49,South,191,4.0,5.0,29,0.00,,,0.00,Wunderground v.1.15,2013-11-14 21:40:00,
2013-11-14 16:42:00,52.3,20.1,30.49,South,172,4.0,5.0,28,0.00,,,0.00,Wunderground v.1.15,2013-11-14 21:42:00,
2013-11-14 16:43:00,52.3,20.1,30.49,SSE,165,4.0,5.0,28,0.00,,,0.00,Wunderground v.1.15,2013-11-14 21:43:00,
2013-11-14 16:47:00,52.0,19.9,30.48,SSE,165,5.0,5.0,28,0.00,,,0.00,Wunderground v.1.15,2013-11-14 21:47:00,
2013-11-14 16:48:00,52.0,19.9,30.48,SSE,155,5.0,7.0,28,0.00,,,0.00,Wunderground v.1.15,2013-11-14 21:48:00,
2013-11-14 16:49:00,51.9,19.8,30.49,South,171,5.0,7.0,28,0.00,,,0.00,Wunderground v.1.15,2013-11-14 21:49:00,
2013-11-14 16:50:00,51.8,19.7,30.48,SSE,161,5.0,5.0,28,0.00,,,0.00,Wunderground v.1.15,2013-11-14 21:50:00,
2013-11-14 16:54:00,51.6,19.5,30.49,SSW,196,5.0,8.0,28,0.00,,,0.00,Wunderground v.1.15,2013-11-14 21:54:00,
2013-11-14 16:56:00,51.5,20.2,30.49,SSW,196,5.0,8.0,29,0.00,,,0.00,Wunderground v.1.15,2013-11-14 21:56:00,
2013-11-14 16:57:00,51.4,20.2,30.49,South,187,5.0,8.0,29,0.00,,,0.00,Wunderground v.1.15,2013-11-14 21:57:00,
2013-11-14 16:58:00,51.3,20.1,30.49,South,186,5.0,8.0,29,0.00,,,0.00,Wunderground v.1.15,2013-11-14 21:58:00,
2013-11-14 17:01:00,51.1,19.9,30.49,South,189,5.0,6.0,29,0.00,,,0.00,Wunderground v.1.15,2013-11-14 22:01:00,
2013-11-14 17:05:00,50.8,20.4,30.48,South,182,5.0,6.0,30,0.00,,,0.00,Wunderground v.1.15,2013-11-14 22:05:00,
2013-11-14 17:06:00,50.6,20.3,30.49,SSW,195,5.0,7.0,30,0.00,,,0.00,Wunderground v.1.15,2013-11-14 22:06:00,
2013-11-14 17:07:00,50.5,20.2,30.49,SSW,198,5.0,7.0,30,0.00,,,0.00,Wunderground v.1.15,2013-11-14 22:07:00,
2013-11-14 17:12:00,49.9,20.4,30.48,South,191,5.0,7.0,31,0.00,,,0.00,Wunderground v.1.15,2013-11-14 22:12:00,
2013-11-14 17:14:00,49.7,20.2,30.48,SW,218,5.0,9.0,31,0.00,,,0.00,Wunderground v.1.15,2013-11-14 22:14:00,
2013-11-14 17:16:00,49.5,19.3,30.48,SSW,212,6.0,9.0,30,0.00,,,0.00,Wunderground v.1.15,2013-11-14 22:16:00,
2013-11-14 17:19:00,49.2,19.0,30.49,SSW,209,6.0,9.0,30,0.00,,,0.00,Wunderground v.1.15,2013-11-14 22:19:00,
2013-11-14 17:21:00,49.0,19.6,30.49,SSW,210,6.0,6.0,31,0.00,,,0.00,Wunderground v.1.15,2013-11-14 22:21:00,
2013-11-14 17:22:00,48.9,19.5,30.49,South,180,6.0,6.0,31,0.00,,,0.00,Wunderground v.1.15,2013-11-14 22:22:00,
2013-11-14 17:23:00,48.8,19.5,30.49,South,188,6.0,6.0,31,0.00,,,0.00,Wunderground v.1.15,2013-11-14 22:23:00,
2013-11-14 17:24:00,48.7,19.4,30.49,SW,227,5.0,6.0,31,0.00,,,0.00,Wunderground v.1.15,2013-11-14 22:24:00,
2013-11-14 17:27:00,48.5,19.2,30.49,SSW,198,5.0,6.0,31,0.00,,,0.00,Wunderground v.1.15,2013-11-14 22:27:00,
2013-11-14 17:28:00,48.4,19.1,30.49,SSW,192,5.0,6.0,31,0.00,,,0.00,Wunderground v.1.15,2013-11-14 22:28:00,
2013-11-14 17:29:00,48.4,19.9,30.49,South,187,5.0,6.0,32,0.00,,,0.00,Wunderground v.1.15,2013-11-14 22:29:00,
2013-11-14 17:31:00,48.3,19.0,30.49,SSE,161,4.0,5.0,31,0.00,,,0.00,Wunderground v.1.15,2013-11-14 22:31:00,
2013-11-14 17:32:00,48.2,18.9,30.49,SSE,161,4.0,5.0,31,0.00,,,0.00,Wunderground v.1.15,2013-11-14 22:32:00,
2013-11-14 17:33:00,48.2,18.9,30.49,SSE,165,3.0,5.0,31,0.00,,,0.00,Wunderground v.1.15,2013-11-14 22:33:00,
2013-11-14 17:35:00,48.2,18.9,30.49,SSE,168,3.0,5.0,31,0.00,,,0.00,Wunderground v.1.15,2013-11-14 22:35:00,
2013-11-14 17:37:00,48.2,18.9,30.49,South,188,3.0,5.0,31,0.00,,,0.00,Wunderground v.1.15,2013-11-14 22:37:00,
2013-11-14 17:40:00,47.9,19.4,30.49,South,190,3.0,5.0,32,0.00,,,0.00,Wunderground v.1.15,2013-11-14 22:40:00,
2013-11-14 17:42:00,47.8,18.6,30.49,SSW,210,3.0,6.0,31,0.00,,,0.00,Wunderground v.1.15,2013-11-14 22:42:00,
2013-11-14 17:43:00,47.8,18.6,30.49,SSW,205,3.0,6.0,31,0.00,,,0.00,Wunderground v.1.15,2013-11-14 22:43:00,
2013-11-14 17:44:00,47.8,18.6,30.49,SSW,202,3.0,6.0,31,0.00,,,0.00,Wunderground v.1.15,2013-11-14 22:44:00,
2013-11-14 17:47:00,47.6,19.2,30.49,SW,225,3.0,7.0,32,0.00,,,0.00,Wunderground v.1.15,2013-11-14 22:47:00,
2013-11-14 17:48:00,47.5,18.3,30.49,SSW,207,3.0,9.0,31,0.00,,,0.00,Wunderground v.1.15,2013-11-14 22:48:00,
2013-11-14 17:49:00,47.5,18.3,30.49,SSW,204,4.0,9.0,31,0.00,,,0.00,Wunderground v.1.15,2013-11-14 22:49:00,
2013-11-14 17:51:00,47.5,19.1,30.49,SSE,166,5.0,9.0,32,0.00,,,0.00,Wunderground v.1.15,2013-11-14 22:51:00,
2013-11-14 17:52:00,47.4,18.2,30.49,SSW,211,5.0,9.0,31,0.00,,,0.00,Wunderground v.1.15,2013-11-14 22:52:00,
2013-11-14 17:54:00,47.4,18.2,30.49,South,189,6.0,9.0,31,0.00,,,0.00,Wunderground v.1.15,2013-11-14 22:54:00,
2013-11-14 17:55:00,47.3,18.9,30.49,South,189,6.0,9.0,32,0.00,,,0.00,Wunderground v.1.15,2013-11-14 22:55:00,
2013-11-14 17:57:00,47.2,18.8,30.50,South,176,6.0,9.0,32,0.00,,,0.00,Wunderground v.1.15,2013-11-14 22:57:00,
2013-11-14 17:58:00,47.2,18.8,30.50,South,181,6.0,9.0,32,0.00,,,0.00,Wunderground v.1.15,2013-11-14 22:58:00,
2013-11-14 17:59:00,47.1,19.4,30.50,SSE,167,6.0,9.0,33,0.00,,,0.00,Wunderground v.1.15,2013-11-14 22:59:00,
2013-11-14 18:01:00,47.0,18.6,30.50,South,169,5.0,5.0,32,0.00,,,0.00,Wunderground v.1.15,2013-11-14 23:01:00,
2013-11-14 18:03:00,46.8,18.5,30.50,ESE,119,4.0,5.0,32,0.00,,,0.00,Wunderground v.1.15,2013-11-14 23:03:00,
2013-11-14 18:04:00,46.7,19.1,30.49,ESE,119,4.0,5.0,33,0.00,,,0.00,Wunderground v.1.15,2013-11-14 23:04:00,
2013-11-14 18:05:00,46.6,19.7,30.50,ESE,118,4.0,5.0,34,0.00,,,0.00,Wunderground v.1.15,2013-11-14 23:05:00,
2013-11-14 18:06:00,46.5,18.9,30.50,ESE,119,4.0,5.0,33,0.00,,,0.00,Wunderground v.1.15,2013-11-14 23:06:00,
2013-11-14 18:07:00,46.3,18.7,30.50,SE,126,3.0,5.0,33,0.00,,,0.00,Wunderground v.1.15,2013-11-14 23:07:00,
2013-11-14 18:09:00,46.1,18.6,30.50,SE,135,3.0,5.0,33,0.00,,,0.00,Wunderground v.1.15,2013-11-14 23:09:00,
2013-11-14 18:10:00,46.0,19.2,30.50,SE,136,3.0,3.0,34,0.00,,,0.00,Wunderground v.1.15,2013-11-14 23:10:00,
2013-11-14 18:12:00,45.8,19.7,30.50,SE,136,2.0,5.0,35,0.00,,,0.00,Wunderground v.1.15,2013-11-14 23:12:00,
2013-11-14 18:14:00,45.5,19.4,30.50,ESE,121,2.0,5.0,35,0.00,,,0.00,Wunderground v.1.15,2013-11-14 23:14:00,
2013-11-14 18:16:00,45.1,19.0,30.50,SE,130,2.0,5.0,35,0.00,,,0.00,Wunderground v.1.15,2013-11-14 23:16:00,
2013-11-14 18:17:00,45.0,19.0,30.50,SE,130,2.0,5.0,35,0.00,,,0.00,Wunderground v.1.15,2013-11-14 23:17:00,
2013-11-14 18:18:00,44.9,18.9,30.50,SE,130,1.0,5.0,35,0.00,,,0.00,Wunderground v.1.15,2013-11-14 23:18:00,
2013-11-14 18:20:00,44.7,19.3,30.50,SSE,163,1.0,5.0,36,0.00,,,0.00,Wunderground v.1.15,2013-11-14 23:20:00,
2013-11-14 18:22:00,44.6,19.3,30.50,SSW,206,1.0,5.0,36,0.00,,,0.00,Wunderground v.1.15,2013-11-14 23:22:00,
2013-11-14 18:25:00,44.2,19.5,30.50,South,178,1.0,5.0,37,0.00,,,0.00,Wunderground v.1.15,2013-11-14 23:25:00,
2013-11-14 18:26:00,44.1,20.1,30.50,South,178,1.0,5.0,38,0.00,,,0.00,Wunderground v.1.15,2013-11-14 23:26:00,
2013-11-14 18:27:00,44.0,19.4,30.50,South,178,1.0,5.0,37,0.00,,,0.00,Wunderground v.1.15,2013-11-14 23:27:00,
2013-11-14 18:29:00,43.7,20.9,30.50,South,188,1.0,5.0,40,0.00,,,0.00,Wunderground v.1.15,2013-11-14 23:29:00,
2013-11-14 18:33:00,43.4,19.5,30.50,SSW,206,2.0,5.0,38,0.00,,,0.00,Wunderground v.1.15,2013-11-14 23:33:00,
2013-11-14 18:34:00,43.5,18.9,30.50,SSE,148,2.0,5.0,37,0.00,,,0.00,Wunderground v.1.15,2013-11-14 23:34:00,
2013-11-14 18:35:00,43.6,19.0,30.50,SE,139,2.0,5.0,37,0.00,,,0.00,Wunderground v.1.15,2013-11-14 23:35:00,
2013-11-14 18:37:00,43.7,19.1,30.50,SE,139,2.0,5.0,37,0.00,,,0.00,Wunderground v.1.15,2013-11-14 23:37:00,
2013-11-14 18:38:00,43.7,19.1,30.50,SE,139,2.0,5.0,37,0.00,,,0.00,Wunderground v.1.15,2013-11-14 23:38:00,
2013-11-14 18:42:00,43.6,20.2,30.50,SE,139,1.0,5.0,39,0.00,,,0.00,Wunderground v.1.15,2013-11-14 23:42:00,
2013-11-14 18:43:00,43.5,19.5,30.50,SE,139,1.0,5.0,38,0.00,,,0.00,Wunderground v.1.15,2013-11-14 23:43:00,
2013-11-14 18:44:00,43.4,19.5,30.50,SE,139,0.0,5.0,38,0.00,,,0.00,Wunderground v.1.15,2013-11-14 23:44:00,
2013-11-14 18:46:00,43.3,20.6,30.50,SSE,165,0.0,5.0,40,0.00,,,0.00,Wunderground v.1.15,2013-11-14 23:46:00,
2013-11-14 18:47:00,43.0,20.9,30.50,SSE,165,0.0,5.0,41,0.00,,,0.00,Wunderground v.1.15,2013-11-14 23:47:00,
2013-11-14 18:48:00,42.8,20.1,30.50,SSE,165,0.0,5.0,40,0.00,,,0.00,Wunderground v.1.15,2013-11-14 23:48:00,
2013-11-14 18:51:00,42.2,19.6,30.50,SSE,165,0.0,5.0,40,0.00,,,0.00,Wunderground v.1.15,2013-11-14 23:51:00,
2013-11-14 18:54:00,41.6,21.3,30.50,SSE,165,0.0,5.0,44,0.00,,,0.00,Wunderground v.1.15,2013-11-14 23:54:00,
2013-11-14 18:55:00,41.4,20.0,30.50,SSE,165,0.0,5.0,42,0.00,,,0.00,Wunderground v.1.15,2013-11-14 23:55:00,
2013-11-14 18:58:00,40.6,21.4,30.50,SSE,165,0.0,5.0,46,0.00,,,0.00,Wunderground v.1.15,2013-11-14 23:58:00,
2013-11-14 18:59:00,40.4,20.7,30.50,SSE,165,0.0,5.0,45,0.00,,,0.00,Wunderground v.1.15,2013-11-14 23:59:00,
2013-11-14 19:01:00,40.0,20.3,30.50,SSE,165,0.0,5.0,45,0.00,,,0.00,Wunderground v.1.15,2013-11-15 00:01:00,
2013-11-14 19:04:00,39.5,20.9,30.50,ESE,119,0.0,5.0,47,0.00,,,0.00,Wunderground v.1.15,2013-11-15 00:04:00,
2013-11-14 19:05:00,39.3,20.2,30.50,ESE,118,1.0,5.0,46,0.00,,,0.00,Wunderground v.1.15,2013-11-15 00:05:00,
2013-11-14 19:08:00,38.6,20.1,30.50,ESE,114,1.0,5.0,47,0.00,,,0.00,Wunderground v.1.15,2013-11-15 00:08:00,
2013-11-14 19:10:00,38.3,20.3,30.50,ESE,114,1.0,5.0,48,0.00,,,0.00,Wunderground v.1.15,2013-11-15 00:10:00,
2013-11-14 19:11:00,38.2,20.2,30.50,ESE,114,2.0,5.0,48,0.00,,,0.00,Wunderground v.1.15,2013-11-15 00:11:00,
2013-11-14 19:13:00,38.1,19.6,30.50,ESE,114,2.0,5.0,47,0.00,,,0.00,Wunderground v.1.15,2013-11-15 00:13:00,
2013-11-14 19:14:00,38.0,19.5,30.50,ESE,114,2.0,5.0,47,0.00,,,0.00,Wunderground v.1.15,2013-11-15 00:14:00,
2013-11-14 19:17:00,38.0,20.5,30.50,ESE,114,1.0,5.0,49,0.00,,,0.00,Wunderground v.1.15,2013-11-15 00:17:00,
2013-11-14 19:18:00,37.9,22.7,30.50,ESE,114,1.0,5.0,54,0.00,,,0.00,Wunderground v.1.15,2013-11-15 00:18:00,
2013-11-14 19:20:00,37.7,21.2,30.50,ESE,114,1.0,1.0,51,0.00,,,0.00,Wunderground v.1.15,2013-11-15 00:20:00,
2013-11-14 19:22:00,37.6,22.4,30.50,ESE,114,1.0,5.0,54,0.00,,,0.00,Wunderground v.1.15,2013-11-15 00:22:00,
2013-11-14 19:23:00,37.4,20.4,30.50,ESE,114,0.0,5.0,50,0.00,,,0.00,Wunderground v.1.15,2013-11-15 00:23:00,
2013-11-14 19:25:00,37.3,20.3,30.50,ESE,114,0.0,5.0,50,0.00,,,0.00,Wunderground v.1.15,2013-11-15 00:25:00,
2013-11-14 19:30:00,37.0,20.1,30.50,ESE,114,0.0,5.0,50,0.00,,,0.00,Wunderground v.1.15,2013-11-15 00:30:00,
2013-11-14 19:31:00,36.9,20.0,30.50,ESE,114,0.0,5.0,50,0.00,,,0.00,Wunderground v.1.15,2013-11-15 00:31:00,
2013-11-14 19:32:00,36.9,20.4,30.50,ESE,114,0.0,5.0,51,0.00,,,0.00,Wunderground v.1.15,2013-11-15 00:32:00,
2013-11-14 19:33:00,36.9,20.4,30.50,ESE,114,0.0,5.0,51,0.00,,,0.00,Wunderground v.1.15,2013-11-15 00:33:00,
2013-11-14 19:36:00,36.7,20.3,30.50,ESE,113,0.0,5.0,51,0.00,,,0.00,Wunderground v.1.15,2013-11-15 00:36:00,
2013-11-14 19:37:00,36.6,20.6,30.50,ESE,114,0.0,5.0,52,0.00,,,0.00,Wunderground v.1.15,2013-11-15 00:37:00,
2013-11-14 19:38:00,36.5,20.5,30.50,ESE,114,0.0,5.0,52,0.00,,,0.00,Wunderground v.1.15,2013-11-15 00:38:00,
2013-11-14 19:41:00,36.3,22.5,30.50,ESE,114,0.0,5.0,57,0.00,,,0.00,Wunderground v.1.15,2013-11-15 00:41:00,
2013-11-14 19:43:00,36.0,21.4,30.50,ESE,114,0.0,5.0,55,0.00,,,0.00,Wunderground v.1.15,2013-11-15 00:43:00,
2013-11-14 19:45:00,35.7,21.5,30.50,ESE,114,0.0,5.0,56,0.00,,,0.00,Wunderground v.1.15,2013-11-15 00:45:00,
2013-11-14 19:47:00,35.3,22.4,30.50,ESE,114,0.0,5.0,59,0.00,,,0.00,Wunderground v.1.15,2013-11-15 00:47:00,
2013-11-14 19:48:00,35.1,21.8,30.50,ESE,114,0.0,5.0,58,0.00,,,0.00,Wunderground v.1.15,2013-11-15 00:48:00,
2013-11-14 19:49:00,35.0,21.3,30.50,ESE,114,0.0,5.0,57,0.00,,,0.00,Wunderground v.1.15,2013-11-15 00:49:00,
2013-11-14 19:53:00,34.4,21.5,30.50,ESE,114,0.0,5.0,59,0.00,,,0.00,Wunderground v.1.15,2013-11-15 00:53:00,
2013-11-14 19:54:00,34.3,21.4,30.50,ESE,114,0.0,5.0,59,0.00,,,0.00,Wunderground v.1.15,2013-11-15 00:54:00,
2013-11-14 19:55:00,34.3,21.4,30.50,ESE,114,0.0,5.0,59,0.00,,,0.00,Wunderground v.1.15,2013-11-15 00:55:00,
2013-11-14 19:56:00,34.2,21.7,30.50,ESE,120,0.0,5.0,60,0.00,,,0.00,Wunderground v.1.15,2013-11-15 00:56:00,
2013-11-14 19:58:00,34.0,22.3,30.49,ESE,120,0.0,5.0,62,0.00,,,0.00,Wunderground v.1.15,2013-11-15 00:58:00,
2013-11-14 19:59:00,33.9,21.9,30.49,ESE,120,0.0,5.0,61,0.00,,,0.00,Wunderground v.1.15,2013-11-15 00:59:00,
2013-11-14 20:01:00,33.8,22.1,30.49,ESE,120,0.0,5.0,62,0.00,,,0.00,Wunderground v.1.15,2013-11-15 01:01:00,
2013-11-14 20:04:00,33.7,21.7,30.49,ESE,120,0.0,5.0,61,0.00,,,0.00,Wunderground v.1.15,2013-11-15 01:04:00,
2013-11-14 20:05:00,33.7,21.7,30.49,ESE,120,0.0,5.0,61,0.00,,,0.00,Wunderground v.1.15,2013-11-15 01:05:00,
2013-11-14 20:06:00,33.6,21.6,30.49,ESE,120,0.0,5.0,61,0.00,,,0.00,Wunderground v.1.15,2013-11-15 01:06:00,
2013-11-14 20:09:00,33.6,22.7,30.49,ESE,120,0.0,5.0,64,0.00,,,0.00,Wunderground v.1.15,2013-11-15 01:09:00,
2013-11-14 20:10:00,33.6,22.7,30.49,ESE,120,0.0,5.0,64,0.00,,,0.00,Wunderground v.1.15,2013-11-15 01:10:00,
2013-11-14 20:11:00,33.6,22.3,30.49,ESE,120,0.0,5.0,63,0.00,,,0.00,Wunderground v.1.15,2013-11-15 01:11:00,
2013-11-14 20:16:00,33.8,22.1,30.49,ESE,120,0.0,5.0,62,0.00,,,0.00,Wunderground v.1.15,2013-11-15 01:16:00,
2013-11-14 20:18:00,33.7,21.7,30.49,ESE,120,0.0,5.0,61,0.00,,,0.00,Wunderground v.1.15,2013-11-15 01:18:00,
2013-11-14 20:21:00,33.5,22.2,30.49,ESE,120,0.0,5.0,63,0.00,,,0.00,Wunderground v.1.15,2013-11-15 01:21:00,
2013-11-14 20:22:00,33.4,22.1,30.49,ESE,120,0.0,5.0,63,0.00,,,0.00,Wunderground v.1.15,2013-11-15 01:22:00,
2013-11-14 20:23:00,33.3,22.1,30.49,ESE,120,0.0,5.0,63,0.00,,,0.00,Wunderground v.1.15,2013-11-15 01:23:00,
2013-11-14 20:24:00,33.2,22.3,30.49,ESE,120,0.0,5.0,64,0.00,,,0.00,Wunderground v.1.15,2013-11-15 01:24:00,
2013-11-14 20:26:00,33.1,22.6,30.50,ESE,120,0.0,5.0,65,0.00,,,0.00,Wunderground v.1.15,2013-11-15 01:26:00,
2013-11-14 20:28:00,32.9,22.0,30.49,ESE,120,0.0,5.0,64,0.00,,,0.00,Wunderground v.1.15,2013-11-15 01:28:00,
2013-11-14 20:29:00,32.8,22.0,30.49,ESE,120,0.0,5.0,64,0.00,,,0.00,Wunderground v.1.15,2013-11-15 01:29:00,
2013-11-14 20:32:00,32.5,21.7,30.49,ESE,120,0.0,5.0,64,0.00,,,0.00,Wunderground v.1.15,2013-11-15 01:32:00,
2013-11-14 20:33:00,32.3,21.5,30.49,ESE,120,0.0,5.0,64,0.00,,,0.00,Wunderground v.1.15,2013-11-15 01:33:00,
2013-11-14 20:34:00,32.2,21.4,30.49,ESE,120,0.0,5.0,64,0.00,,,0.00,Wunderground v.1.15,2013-11-15 01:34:00,
2013-11-14 20:37:00,31.9,21.1,30.49,ESE,120,1.0,5.0,64,0.00,,,0.00,Wunderground v.1.15,2013-11-15 01:37:00,
2013-11-14 20:38:00,31.8,21.4,30.49,ESE,120,1.0,5.0,65,0.00,,,0.00,Wunderground v.1.15,2013-11-15 01:38:00,
2013-11-14 20:42:00,31.4,21.3,30.48,ESE,120,1.0,5.0,66,0.00,,,0.00,Wunderground v.1.15,2013-11-15 01:42:00,
2013-11-14 20:43:00,31.4,21.3,30.48,ESE,120,1.0,5.0,66,0.00,,,0.00,Wunderground v.1.15,2013-11-15 01:43:00,
2013-11-14 20:44:00,31.4,21.3,30.48,ESE,120,1.0,5.0,66,0.00,,,0.00,Wunderground v.1.15,2013-11-15 01:44:00,
2013-11-14 20:45:00,31.3,21.6,30.48,ESE,120,1.0,5.0,67,0.00,,,0.00,Wunderground v.1.15,2013-11-15 01:45:00,
2013-11-14 20:47:00,31.2,21.5,30.49,ESE,121,0.0,5.0,67,0.00,,,0.00,Wunderground v.1.15,2013-11-15 01:47:00,
2013-11-14 20:50:00,31.1,20.3,30.49,ESE,121,1.0,1.0,64,0.00,,,0.00,Wunderground v.1.15,2013-11-15 01:50:00,
2013-11-14 20:51:00,31.1,20.0,30.48,ESE,121,1.0,5.0,63,0.00,,,0.00,Wunderground v.1.15,2013-11-15 01:51:00,
2013-11-14 20:54:00,31.0,20.2,30.49,ESE,121,1.0,5.0,64,0.00,,,0.00,Wunderground v.1.15,2013-11-15 01:54:00,
2013-11-14 20:55:00,30.9,20.1,30.49,ESE,121,1.0,5.0,64,0.00,,,0.00,Wunderground v.1.15,2013-11-15 01:55:00,
2013-11-14 21:00:00,30.6,20.2,30.49,ESE,121,1.0,1.0,65,0.00,,,0.00,Wunderground v.1.15,2013-11-15 02:00:00,
2013-11-14 21:02:00,30.5,20.5,30.49,ESE,121,1.0,5.0,66,0.00,,,0.00,Wunderground v.1.15,2013-11-15 02:02:00,
2013-11-14 21:05:00,30.5,22.2,30.49,ESE,121,0.0,5.0,71,0.00,,,0.00,Wunderground v.1.15,2013-11-15 02:05:00,
2013-11-14 21:06:00,30.4,21.4,30.49,ESE,121,0.0,5.0,69,0.00,,,0.00,Wunderground v.1.15,2013-11-15 02:06:00,
2013-11-14 21:07:00,30.4,21.8,30.49,ESE,121,0.0,5.0,70,0.00,,,0.00,Wunderground v.1.15,2013-11-15 02:07:00,
2013-11-14 21:08:00,30.4,22.1,30.49,ESE,121,0.0,5.0,71,0.00,,,0.00,Wunderground v.1.15,2013-11-15 02:08:00,
2013-11-14 21:10:00,30.4,22.8,30.49,ESE,121,0.0,5.0,73,0.00,,,0.00,Wunderground v.1.15,2013-11-15 02:10:00,
2013-11-14 21:11:00,30.4,22.1,30.50,ESE,121,0.0,5.0,71,0.00,,,0.00,Wunderground v.1.15,2013-11-15 02:11:00,
2013-11-14 21:13:00,30.3,21.3,30.50,ESE,121,0.0,5.0,69,0.00,,,0.00,Wunderground v.1.15,2013-11-15 02:13:00,
2013-11-14 21:17:00,30.1,22.2,30.50,ESE,121,0.0,5.0,72,0.00,,,0.00,Wunderground v.1.15,2013-11-15 02:17:00,
2013-11-14 21:18:00,30.1,22.2,30.50,ESE,121,0.0,5.0,72,0.00,,,0.00,Wunderground v.1.15,2013-11-15 02:18:00,
2013-11-14 21:19:00,30.1,21.8,30.50,ESE,121,0.0,5.0,71,0.00,,,0.00,Wunderground v.1.15,2013-11-15 02:19:00,
2013-11-14 21:20:00,30.0,21.4,30.50,ESE,121,0.0,5.0,70,0.00,,,0.00,Wunderground v.1.15,2013-11-15 02:20:00,
2013-11-14 21:24:00,29.9,21.3,30.50,ESE,121,0.0,5.0,70,0.00,,,0.00,Wunderground v.1.15,2013-11-15 02:24:00,
2013-11-14 21:25:00,30.0,22.4,30.50,ESE,121,0.0,5.0,73,0.00,,,0.00,Wunderground v.1.15,2013-11-15 02:25:00,
2013-11-14 21:27:00,30.0,22.1,30.50,ESE,121,0.0,5.0,72,0.00,,,0.00,Wunderground v.1.15,2013-11-15 02:27:00,
2013-11-14 21:28:00,30.0,21.7,30.50,ESE,121,0.0,5.0,71,0.00,,,0.00,Wunderground v.1.15,2013-11-15 02:28:00,
2013-11-14 21:30:00,29.9,21.0,30.50,ESE,121,0.0,5.0,69,0.00,,,0.00,Wunderground v.1.15,2013-11-15 02:30:00,
2013-11-14 21:31:00,29.8,20.9,30.50,ESE,121,0.0,5.0,69,0.00,,,0.00,Wunderground v.1.15,2013-11-15 02:31:00,
2013-11-14 21:36:00,29.3,21.1,30.50,ESE,121,0.0,5.0,71,0.00,,,0.00,Wunderground v.1.15,2013-11-15 02:36:00,
2013-11-14 21:37:00,29.2,21.0,30.50,ESE,121,0.0,5.0,71,0.00,,,0.00,Wunderground v.1.15,2013-11-15 02:37:00,
2013-11-14 21:38:00,29.1,20.5,30.50,ESE,121,1.0,5.0,70,0.00,,,0.00,Wunderground v.1.15,2013-11-15 02:38:00,
2013-11-14 21:39:00,29.0,20.1,30.50,ESE,121,1.0,5.0,69,0.00,,,0.00,Wunderground v.1.15,2013-11-15 02:39:00,
2013-11-14 21:41:00,29.1,20.5,30.50,ESE,121,1.0,5.0,70,0.00,,,0.00,Wunderground v.1.15,2013-11-15 02:41:00,
2013-11-14 21:42:00,29.1,20.9,30.50,ESE,121,1.0,5.0,71,0.00,,,0.00,Wunderground v.1.15,2013-11-15 02:42:00,
2013-11-14 21:43:00,29.2,22.3,30.50,ESE,121,1.0,5.0,75,0.00,,,0.00,Wunderground v.1.15,2013-11-15 02:43:00,
2013-11-14 21:46:00,29.4,22.5,30.49,ESE,121,1.0,5.0,75,0.00,,,0.00,Wunderground v.1.15,2013-11-15 02:46:00,
2013-11-14 21:47:00,29.4,21.8,30.49,ESE,121,1.0,5.0,73,0.00,,,0.00,Wunderground v.1.15,2013-11-15 02:47:00,
2013-11-14 21:48:00,29.4,21.2,30.49,ESE,121,0.0,5.0,71,0.00,,,0.00,Wunderground v.1.15,2013-11-15 02:48:00,
2013-11-14 21:49:00,29.4,21.2,30.49,ESE,121,0.0,5.0,71,0.00,,,0.00,Wunderground v.1.15,2013-11-15 02:49:00,
2013-11-14 21:50:00,29.4,21.2,30.49,ESE,121,0.0,5.0,71,0.00,,,0.00,Wunderground v.1.15,2013-11-15 02:50:00,
2013-11-14 21:51:00,29.3,21.1,30.49,ESE,121,0.0,5.0,71,0.00,,,0.00,Wunderground v.1.15,2013-11-15 02:51:00,
2013-11-14 21:52:00,29.2,21.0,30.49,ESE,121,0.0,5.0,71,0.00,,,0.00,Wunderground v.1.15,2013-11-15 02:52:00,
2013-11-14 21:55:00,29.0,20.8,30.50,ESE,121,0.0,5.0,71,0.00,,,0.00,Wunderground v.1.15,2013-11-15 02:55:00,
2013-11-14 21:56:00,29.0,20.8,30.50,ESE,121,0.0,5.0,71,0.00,,,0.00,Wunderground v.1.15,2013-11-15 02:56:00,
2013-11-14 21:58:00,28.9,21.0,30.49,ESE,121,0.0,5.0,72,0.00,,,0.00,Wunderground v.1.15,2013-11-15 02:58:00,
2013-11-14 21:59:00,28.8,20.9,30.49,ESE,121,0.0,5.0,72,0.00,,,0.00,Wunderground v.1.15,2013-11-15 02:59:00,
2013-11-14 22:00:00,28.8,20.9,30.49,ESE,121,0.0,5.0,72,0.00,,,0.00,Wunderground v.1.15,2013-11-15 03:00:00,
2013-11-14 22:01:00,28.7,20.8,30.49,ESE,121,0.0,5.0,72,0.00,,,0.00,Wunderground v.1.15,2013-11-15 03:01:00,
2013-11-14 22:02:00,28.7,20.8,30.49,ESE,121,0.0,5.0,72,0.00,,,0.00,Wunderground v.1.15,2013-11-15 03:02:00,
2013-11-14 22:04:00,28.7,21.8,30.50,ESE,121,0.0,5.0,75,0.00,,,0.00,Wunderground v.1.15,2013-11-15 03:04:00,
2013-11-14 22:05:00,28.7,21.8,30.50,ESE,121,0.0,5.0,75,0.00,,,0.00,Wunderground v.1.15,2013-11-15 03:05:00,
2013-11-14 22:07:00,28.6,20.7,30.50,ESE,121,0.0,5.0,72,0.00,,,0.00,Wunderground v.1.15,2013-11-15 03:07:00,
2013-11-14 22:08:00,28.5,20.6,30.50,ESE,121,0.0,5.0,72,0.00,,,0.00,Wunderground v.1.15,2013-11-15 03:08:00,
2013-11-14 22:10:00,28.4,20.5,30.50,ESE,121,0.0,5.0,72,0.00,,,0.00,Wunderground v.1.15,2013-11-15 03:10:00,
2013-11-14 22:13:00,28.3,21.4,30.50,ESE,121,0.0,5.0,75,0.00,,,0.00,Wunderground v.1.15,2013-11-15 03:13:00,
2013-11-14 22:14:00,28.3,21.1,30.50,ESE,121,0.0,5.0,74,0.00,,,0.00,Wunderground v.1.15,2013-11-15 03:14:00,
2013-11-14 22:15:00,28.3,20.7,30.50,ESE,121,0.0,5.0,73,0.00,,,0.00,Wunderground v.1.15,2013-11-15 03:15:00,
2013-11-14 22:17:00,28.2,21.0,30.50,ESE,121,0.0,5.0,74,0.00,,,0.00,Wunderground v.1.15,2013-11-15 03:17:00,
2013-11-14 22:18:00,28.1,20.9,30.50,ESE,121,0.0,5.0,74,0.00,,,0.00,Wunderground v.1.15,2013-11-15 03:18:00,
2013-11-14 22:21:00,28.0,20.8,30.50,ESE,121,0.0,5.0,74,0.00,,,0.00,Wunderground v.1.15,2013-11-15 03:21:00,
2013-11-14 22:23:00,27.9,20.7,30.50,ESE,121,0.0,5.0,74,0.00,,,0.00,Wunderground v.1.15,2013-11-15 03:23:00,
2013-11-14 22:24:00,27.8,20.9,30.50,ESE,121,0.0,5.0,75,0.00,,,0.00,Wunderground v.1.15,2013-11-15 03:24:00,
2013-11-14 22:25:00,27.6,20.7,30.50,ESE,121,0.0,5.0,75,0.00,,,0.00,Wunderground v.1.15,2013-11-15 03:25:00,
2013-11-14 22:27:00,27.4,20.8,30.50,ESE,121,0.0,5.0,76,0.00,,,0.00,Wunderground v.1.15,2013-11-15 03:27:00,
2013-11-14 22:29:00,27.2,21.2,30.50,ESE,121,0.0,5.0,78,0.00,,,0.00,Wunderground v.1.15,2013-11-15 03:29:00,
2013-11-14 22:30:00,27.1,21.2,30.50,ESE,121,0.0,5.0,78,0.00,,,0.00,Wunderground v.1.15,2013-11-15 03:30:00,
2013-11-14 22:32:00,27.0,20.7,30.50,ESE,121,0.0,5.0,77,0.00,,,0.00,Wunderground v.1.15,2013-11-15 03:32:00,
2013-11-14 22:33:00,26.9,20.7,30.50,ESE,121,0.0,5.0,77,0.00,,,0.00,Wunderground v.1.15,2013-11-15 03:33:00,
2013-11-14 22:34:00,26.9,21.0,30.50,ESE,121,0.0,5.0,78,0.00,,,0.00,Wunderground v.1.15,2013-11-15 03:34:00,
2013-11-14 22:38:00,26.8,20.9,30.49,ESE,121,0.0,5.0,78,0.00,,,0.00,Wunderground v.1.15,2013-11-15 03:38:00,
2013-11-14 22:40:00,26.9,21.0,30.50,West,266,0.0,5.0,78,0.00,,,0.00,Wunderground v.1.15,2013-11-15 03:40:00,
2013-11-14 22:41:00,26.9,21.0,30.50,West,266,1.0,5.0,78,0.00,,,0.00,Wunderground v.1.15,2013-11-15 03:41:00,
2013-11-14 22:43:00,26.9,20.7,30.49,West,266,1.0,5.0,77,0.00,,,0.00,Wunderground v.1.15,2013-11-15 03:43:00,
2013-11-14 22:47:00,27.1,20.8,30.49,West,266,1.0,5.0,77,0.00,,,0.00,Wunderground v.1.15,2013-11-15 03:47:00,
2013-11-14 22:48:00,27.1,20.5,30.49,West,266,1.0,5.0,76,0.00,,,0.00,Wunderground v.1.15,2013-11-15 03:48:00,
2013-11-14 22:50:00,27.1,20.5,30.49,West,266,1.0,5.0,76,0.00,,,0.00,Wunderground v.1.15,2013-11-15 03:50:00,
2013-11-14 22:53:00,27.1,20.5,30.50,West,266,1.0,5.0,76,0.00,,,0.00,Wunderground v.1.15,2013-11-15 03:53:00,
2013-11-14 22:54:00,27.0,20.4,30.50,West,266,1.0,5.0,76,0.00,,,0.00,Wunderground v.1.15,2013-11-15 03:54:00,
2013-11-14 22:55:00,27.0,20.4,30.49,West,266,1.0,5.0,76,0.00,,,0.00,Wunderground v.1.15,2013-11-15 03:55:00,
2013-11-14 22:57:00,27.0,20.4,30.49,West,266,1.0,5.0,76,0.00,,,0.00,Wunderground v.1.15,2013-11-15 03:57:00,
2013-11-14 22:58:00,27.0,20.7,30.50,West,266,1.0,5.0,77,0.00,,,0.00,Wunderground v.1.15,2013-11-15 03:58:00,
2013-11-14 23:00:00,27.0,20.7,30.50,SW,227,0.0,1.0,77,0.00,,,0.00,Wunderground v.1.15,2013-11-15 04:00:00,
2013-11-14 23:03:00,26.9,20.7,30.50,SW,227,0.0,1.0,77,0.00,,,0.00,Wunderground v.1.15,2013-11-15 04:03:00,
2013-11-14 23:04:00,26.8,20.6,30.50,SW,227,0.0,1.0,77,0.00,,,0.00,Wunderground v.1.15,2013-11-15 04:04:00,
2013-11-14 23:06:00,26.7,20.5,30.50,SW,227,0.0,1.0,77,0.00,,,0.00,Wunderground v.1.15,2013-11-15 04:06:00,
2013-11-14 23:09:00,26.4,20.5,30.50,SW,227,0.0,1.0,78,0.00,,,0.00,Wunderground v.1.15,2013-11-15 04:09:00,
2013-11-14 23:11:00,26.3,20.7,30.50,SW,227,0.0,0.0,79,0.00,,,0.00,Wunderground v.1.15,2013-11-15 04:11:00,
2013-11-14 23:12:00,26.3,20.7,30.50,SW,227,0.0,0.0,79,0.00,,,0.00,Wunderground v.1.15,2013-11-15 04:12:00,
2013-11-14 23:15:00,26.2,20.6,30.49,SW,227,0.0,0.0,79,0.00,,,0.00,Wunderground v.1.15,2013-11-15 04:15:00,
2013-11-14 23:17:00,26.1,20.5,30.49,SW,227,0.0,0.0,79,0.00,,,0.00,Wunderground v.1.15,2013-11-15 04:17:00,
2013-11-14 23:18:00,26.1,20.2,30.49,SW,227,0.0,0.0,78,0.00,,,0.00,Wunderground v.1.15,2013-11-15 04:18:00,
2013-11-14 23:19:00,26.1,20.2,30.49,SW,227,0.0,0.0,78,0.00,,,0.00,Wunderground v.1.15,2013-11-15 04:19:00,
2013-11-14 23:21:00,26.1,20.5,30.49,SW,227,0.0,0.0,79,0.00,,,0.00,Wunderground v.1.15,2013-11-15 04:21:00,
2013-11-14 23:23:00,26.1,21.1,30.49,SW,227,0.0,0.0,81,0.00,,,0.00,Wunderground v.1.15,2013-11-15 04:23:00,
2013-11-14 23:24:00,26.1,20.8,30.49,SW,227,0.0,0.0,80,0.00,,,0.00,Wunderground v.1.15,2013-11-15 04:24:00,
2013-11-14 23:26:00,26.1,20.5,30.49,SW,227,0.0,1.0,79,0.00,,,0.00,Wunderground v.1.15,2013-11-15 04:26:00,
2013-11-14 23:28:00,26.1,20.5,30.49,WSW,239,0.0,2.0,79,0.00,,,0.00,Wunderground v.1.15,2013-11-15 04:28:00,
2013-11-14 23:30:00,26.1,20.2,30.49,WSW,239,1.0,1.0,78,0.00,,,0.00,Wunderground v.1.15,2013-11-15 04:30:00,
2013-11-14 23:32:00,26.1,20.2,30.49,WSW,239,1.0,1.0,78,0.00,,,0.00,Wunderground v.1.15,2013-11-15 04:32:00,
2013-11-14 23:34:00,26.1,19.9,30.49,WSW,239,1.0,1.0,77,0.00,,,0.00,Wunderground v.1.15,2013-11-15 04:34:00,
2013-11-14 23:37:00,26.2,20.3,30.49,WSW,239,1.0,1.0,78,0.00,,,0.00,Wunderground v.1.15,2013-11-15 04:37:00,
2013-11-14 23:38:00,26.3,20.1,30.49,WSW,239,0.0,1.0,77,0.00,,,0.00,Wunderground v.1.15,2013-11-15 04:38:00,
2013-11-14 23:39:00,26.3,20.1,30.49,WSW,239,0.0,2.0,77,0.00,,,0.00,Wunderground v.1.15,2013-11-15 04:39:00,
2013-11-14 23:42:00,26.1,20.2,30.49,WSW,239,0.0,1.0,78,0.00,,,0.00,Wunderground v.1.15,2013-11-15 04:42:00,
2013-11-14 23:43:00,26.0,20.1,30.49,WSW,239,0.0,1.0,78,0.00,,,0.00,Wunderground v.1.15,2013-11-15 04:43:00,
2013-11-14 23:45:00,25.8,19.9,30.49,WSW,239,1.0,1.0,78,0.00,,,0.00,Wunderground v.1.15,2013-11-15 04:45:00,
2013-11-14 23:47:00,25.8,19.9,30.49,WSW,239,1.0,1.0,78,0.00,,,0.00,Wunderground v.1.15,2013-11-15 04:47:00,
2013-11-14 23:49:00,25.7,20.1,30.49,WSW,239,1.0,1.0,79,0.00,,,0.00,Wunderground v.1.15,2013-11-15 04:49:00,
2013-11-14 23:51:00,25.7,19.8,30.49,WSW,239,0.0,0.0,78,0.00,,,0.00,Wunderground v.1.15,2013-11-15 04:51:00,
2013-11-14 23:52:00,25.7,20.1,30.49,WSW,239,0.0,0.0,79,0.00,,,0.00,Wunderground v.1.15,2013-11-15 04:52:00,
2013-11-14 23:55:00,25.6,20.0,30.49,WSW,239,0.0,1.0,79,0.00,,,0.00,Wunderground v.1.15,2013-11-15 04:55:00,
2013-11-14 23:56:00,25.6,20.0,30.49,WSW,239,0.0,1.0,79,0.00,,,0.00,Wunderground v.1.15,2013-11-15 04:56:00,
2013-11-14 23:58:00,25.6,20.0,30.49,WSW,239,0.0,1.0,79,0.00,,,0.00,Wunderground v.1.15,2013-11-15 04:58:00,